Time,TemperatureF,DewpointF,PressureIn,WindDirection,WindDirectionDegrees,WindSpeedMPH,WindSpeedGustMPH,Humidity,HourlyPrecipIn,Conditions,Clouds,dailyrainin,SoftwareType,DateUTC
2013-02-15 00:01:00,44.8,40.0,30.01,SE,128,0.0,0.0,83,0.00,,,0.00,Wunderground v.1.15,2013-02-15 06:01:00,
2013-02-15 00:05:00,44.8,40.0,30.01,SE,128,0.0,0.0,83,0.00,,,0.00,Wunderground v.1.15,2013-02-15 06:05:00,
2013-02-15 00:07:00,44.8,40.0,30.01,SE,128,0.0,0.0,83,0.00,,,0.00,Wunderground v.1.15,2013-02-15 06:07:00,
2013-02-15 00:12:00,44.6,39.8,30.01,SE,128,0.0,0.0,83,0.00,,,0.00,Wunderground v.1.15,2013-02-15 06:12:00,
2013-02-15 00:14:00,44.6,39.8,30.01,SE,128,0.0,0.0,83,0.00,,,0.00,Wunderground v.1.15,2013-02-15 06:14:00,
2013-02-15 00:17:00,44.5,40.0,30.01,SE,128,0.0,0.0,84,0.00,,,0.00,Wunderground v.1.15,2013-02-15 06:17:00,
2013-02-15 00:19:00,44.5,40.0,30.01,SE,128,0.0,0.0,84,0.00,,,0.00,Wunderground v.1.15,2013-02-15 06:19:00,
2013-02-15 00:20:00,44.5,40.0,30.01,SE,128,0.0,0.0,84,0.00,,,0.00,Wunderground v.1.15,2013-02-15 06:20:00,
2013-02-15 00:22:00,44.5,40.0,30.01,SE,128,0.0,0.0,84,0.00,,,0.00,Wunderground v.1.15,2013-02-15 06:22:00,
2013-02-15 00:24:00,44.5,40.0,30.01,SE,128,0.0,0.0,84,0.00,,,0.00,Wunderground v.1.15,2013-02-15 06:24:00,
2013-02-15 00:26:00,44.3,39.8,30.01,SE,128,0.0,0.0,84,0.00,,,0.00,Wunderground v.1.15,2013-02-15 06:26:00,
2013-02-15 00:30:00,44.2,39.7,30.01,SE,128,0.0,0.0,84,0.00,,,0.00,Wunderground v.1.15,2013-02-15 06:30:00,
2013-02-15 00:31:00,44.2,39.7,30.01,SE,128,0.0,0.0,84,0.00,,,0.00,Wunderground v.1.15,2013-02-15 06:31:00,
2013-02-15 00:32:00,44.1,39.6,30.01,SE,128,0.0,0.0,84,0.00,,,0.00,Wunderground v.1.15,2013-02-15 06:32:00,
2013-02-15 00:34:00,44.1,39.9,30.01,SE,128,0.0,0.0,85,0.00,,,0.00,Wunderground v.1.15,2013-02-15 06:34:00,
2013-02-15 00:36:00,43.9,39.7,30.01,SE,128,0.0,0.0,85,0.00,,,0.00,Wunderground v.1.15,2013-02-15 06:36:00,
2013-02-15 00:38:00,43.8,39.6,30.01,SE,128,0.0,0.0,85,0.00,,,0.00,Wunderground v.1.15,2013-02-15 06:38:00,
2013-02-15 00:40:00,43.8,39.6,30.01,SE,128,0.0,0.0,85,0.00,,,0.00,Wunderground v.1.15,2013-02-15 06:40:00,
2013-02-15 00:42:00,43.6,39.4,30.01,SE,128,0.0,0.0,85,0.00,,,0.00,Wunderground v.1.15,2013-02-15 06:42:00,
2013-02-15 00:46:00,43.3,39.1,30.01,SE,128,0.0,0.0,85,0.00,,,0.00,Wunderground v.1.15,2013-02-15 06:46:00,
2013-02-15 00:48:00,43.3,39.1,30.01,SE,128,0.0,0.0,85,0.00,,,0.00,Wunderground v.1.15,2013-02-15 06:48:00,
2013-02-15 00:49:00,43.2,39.0,30.01,SE,128,0.0,0.0,85,0.00,,,0.00,Wunderground v.1.15,2013-02-15 06:49:00,
2013-02-15 00:51:00,43.1,38.9,30.01,SE,128,0.0,0.0,85,0.00,,,0.00,Wunderground v.1.15,2013-02-15 06:51:00,
2013-02-15 00:52:00,43.1,38.9,30.01,SE,128,0.0,0.0,85,0.00,,,0.00,Wunderground v.1.15,2013-02-15 06:52:00,
2013-02-15 00:56:00,42.9,38.7,30.01,SE,128,0.0,0.0,85,0.00,,,0.00,Wunderground v.1.15,2013-02-15 06:56:00,
2013-02-15 00:58:00,42.8,38.6,30.01,SE,128,0.0,0.0,85,0.00,,,0.00,Wunderground v.1.15,2013-02-15 06:58:00,
2013-02-15 00:59:00,42.6,38.4,30.01,SE,128,0.0,0.0,85,0.00,,,0.00,Wunderground v.1.15,2013-02-15 06:59:00,
2013-02-15 01:01:00,42.6,38.4,30.01,SE,128,0.0,0.0,85,0.00,,,0.00,Wunderground v.1.15,2013-02-15 07:01:00,
2013-02-15 01:05:00,42.5,38.3,30.01,SE,128,0.0,0.0,85,0.00,,,0.00,Wunderground v.1.15,2013-02-15 07:05:00,
2013-02-15 01:07:00,42.5,38.6,30.01,SE,128,0.0,0.0,86,0.00,,,0.00,Wunderground v.1.15,2013-02-15 07:07:00,
2013-02-15 01:09:00,42.3,38.4,30.01,SE,128,0.0,0.0,86,0.00,,,0.00,Wunderground v.1.15,2013-02-15 07:09:00,
2013-02-15 01:11:00,42.3,38.4,30.01,SE,128,0.0,0.0,86,0.00,,,0.00,Wunderground v.1.15,2013-02-15 07:11:00,
2013-02-15 01:13:00,42.3,38.7,30.01,SE,128,0.0,0.0,87,0.00,,,0.00,Wunderground v.1.15,2013-02-15 07:13:00,
2013-02-15 01:14:00,42.3,38.7,30.01,SE,128,0.0,0.0,87,0.00,,,0.00,Wunderground v.1.15,2013-02-15 07:14:00,
2013-02-15 01:15:00,42.3,38.7,30.01,SE,128,0.0,0.0,87,0.00,,,0.00,Wunderground v.1.15,2013-02-15 07:15:00,
2013-02-15 01:21:00,42.3,38.7,30.02,SE,128,0.0,0.0,87,0.00,,,0.00,Wunderground v.1.15,2013-02-15 07:21:00,
2013-02-15 01:22:00,42.3,38.7,30.02,SE,128,0.0,0.0,87,0.00,,,0.00,Wunderground v.1.15,2013-02-15 07:22:00,
2013-02-15 01:28:00,42.3,39.0,30.02,SE,128,0.0,0.0,88,0.00,,,0.00,Wunderground v.1.15,2013-02-15 07:28:00,
2013-02-15 01:29:00,42.2,38.9,30.02,SE,128,0.0,0.0,88,0.00,,,0.00,Wunderground v.1.15,2013-02-15 07:29:00,
2013-02-15 01:30:00,42.2,38.9,30.02,SE,128,0.0,0.0,88,0.00,,,0.00,Wunderground v.1.15,2013-02-15 07:30:00,
2013-02-15 01:31:00,42.2,38.9,30.02,SE,128,0.0,0.0,88,0.00,,,0.00,Wunderground v.1.15,2013-02-15 07:31:00,
2013-02-15 01:35:00,42.1,38.8,30.02,SE,128,0.0,0.0,88,0.00,,,0.00,Wunderground v.1.15,2013-02-15 07:35:00,
2013-02-15 01:36:00,42.1,38.8,30.02,SE,128,0.0,0.0,88,0.00,,,0.00,Wunderground v.1.15,2013-02-15 07:36:00,
2013-02-15 01:37:00,42.1,38.8,30.02,SE,128,0.0,0.0,88,0.00,,,0.00,Wunderground v.1.15,2013-02-15 07:37:00,
2013-02-15 01:41:00,41.9,38.6,30.02,SE,128,0.0,0.0,88,0.00,,,0.00,Wunderground v.1.15,2013-02-15 07:41:00,
2013-02-15 01:44:00,41.9,38.6,30.02,SE,128,0.0,0.0,88,0.00,,,0.00,Wunderground v.1.15,2013-02-15 07:44:00,
2013-02-15 01:46:00,41.9,38.6,30.03,SE,128,0.0,0.0,88,0.00,,,0.00,Wunderground v.1.15,2013-02-15 07:46:00,
2013-02-15 01:50:00,41.9,38.9,30.03,SE,128,0.0,0.0,89,0.00,,,0.00,Wunderground v.1.15,2013-02-15 07:50:00,
2013-02-15 01:51:00,42.1,39.1,30.03,SE,128,0.0,0.0,89,0.00,,,0.00,Wunderground v.1.15,2013-02-15 07:51:00,
2013-02-15 01:54:00,41.9,38.9,30.03,SE,128,0.0,0.0,89,0.00,,,0.00,Wunderground v.1.15,2013-02-15 07:54:00,
2013-02-15 01:57:00,41.9,38.9,30.03,SE,128,0.0,0.0,89,0.00,,,0.00,Wunderground v.1.15,2013-02-15 07:57:00,
2013-02-15 01:58:00,41.9,38.9,30.03,SE,128,0.0,0.0,89,0.00,,,0.00,Wunderground v.1.15,2013-02-15 07:58:00,
2013-02-15 02:00:00,41.9,38.9,30.03,SE,128,0.0,0.0,89,0.00,,,0.00,Wunderground v.1.15,2013-02-15 08:00:00,
2013-02-15 02:02:00,41.9,38.9,30.03,SE,128,0.0,0.0,89,0.00,,,0.00,Wunderground v.1.15,2013-02-15 08:02:00,
2013-02-15 02:05:00,41.9,38.9,30.03,SE,128,0.0,0.0,89,0.00,,,0.00,Wunderground v.1.15,2013-02-15 08:05:00,
2013-02-15 02:06:00,41.9,38.9,30.03,SE,128,0.0,0.0,89,0.00,,,0.00,Wunderground v.1.15,2013-02-15 08:06:00,
2013-02-15 02:07:00,41.9,39.2,30.03,SE,128,0.0,0.0,90,0.00,,,0.00,Wunderground v.1.15,2013-02-15 08:07:00,
2013-02-15 02:08:00,42.1,39.4,30.03,SE,128,0.0,0.0,90,0.00,,,0.00,Wunderground v.1.15,2013-02-15 08:08:00,
2013-02-15 02:12:00,42.1,39.4,30.03,SE,128,0.0,0.0,90,0.00,,,0.00,Wunderground v.1.15,2013-02-15 08:12:00,
2013-02-15 02:15:00,41.9,39.2,30.03,SE,128,0.0,0.0,90,0.00,,,0.00,Wunderground v.1.15,2013-02-15 08:15:00,
2013-02-15 02:16:00,41.9,39.2,30.02,SE,128,0.0,0.0,90,0.00,,,0.00,Wunderground v.1.15,2013-02-15 08:16:00,
2013-02-15 02:19:00,41.9,39.2,30.02,SE,128,0.0,0.0,90,0.00,,,0.00,Wunderground v.1.15,2013-02-15 08:19:00,
2013-02-15 02:21:00,41.9,39.2,30.02,SE,128,0.0,0.0,90,0.00,,,0.00,Wunderground v.1.15,2013-02-15 08:21:00,
2013-02-15 02:24:00,41.9,39.2,30.02,SE,128,0.0,0.0,90,0.00,,,0.00,Wunderground v.1.15,2013-02-15 08:24:00,
2013-02-15 02:26:00,41.8,39.1,30.02,SE,128,0.0,0.0,90,0.00,,,0.00,Wunderground v.1.15,2013-02-15 08:26:00,
2013-02-15 02:29:00,41.8,39.1,30.02,SE,128,0.0,0.0,90,0.00,,,0.00,Wunderground v.1.15,2013-02-15 08:29:00,
2013-02-15 02:31:00,41.8,39.1,30.03,SE,128,0.0,0.0,90,0.00,,,0.00,Wunderground v.1.15,2013-02-15 08:31:00,
2013-02-15 02:33:00,41.8,39.1,30.03,SE,128,0.0,0.0,90,0.00,,,0.00,Wunderground v.1.15,2013-02-15 08:33:00,
2013-02-15 02:36:00,41.8,39.1,30.03,SE,128,0.0,0.0,90,0.00,,,0.00,Wunderground v.1.15,2013-02-15 08:36:00,
2013-02-15 02:38:00,41.6,38.9,30.03,SE,128,0.0,0.0,90,0.00,,,0.00,Wunderground v.1.15,2013-02-15 08:38:00,
2013-02-15 02:42:00,41.6,39.2,30.03,SE,128,0.0,0.0,91,0.00,,,0.00,Wunderground v.1.15,2013-02-15 08:42:00,
2013-02-15 02:45:00,41.8,39.1,30.03,SE,128,0.0,0.0,90,0.00,,,0.00,Wunderground v.1.15,2013-02-15 08:45:00,
2013-02-15 02:49:00,41.6,38.9,30.02,SE,128,0.0,0.0,90,0.00,,,0.00,Wunderground v.1.15,2013-02-15 08:49:00,
2013-02-15 02:50:00,41.6,38.9,30.02,SE,128,0.0,0.0,90,0.00,,,0.00,Wunderground v.1.15,2013-02-15 08:50:00,
2013-02-15 02:52:00,41.6,38.9,30.02,SE,128,0.0,0.0,90,0.00,,,0.00,Wunderground v.1.15,2013-02-15 08:52:00,
2013-02-15 02:55:00,41.5,38.8,30.02,SE,128,0.0,0.0,90,0.00,,,0.00,Wunderground v.1.15,2013-02-15 08:55:00,
2013-02-15 02:56:00,41.5,38.8,30.02,SE,128,0.0,0.0,90,0.00,,,0.00,Wunderground v.1.15,2013-02-15 08:56:00,
2013-02-15 02:57:00,41.3,38.6,30.02,SE,128,0.0,0.0,90,0.00,,,0.00,Wunderground v.1.15,2013-02-15 08:57:00,
2013-02-15 02:58:00,41.3,38.6,30.02,SE,128,0.0,0.0,90,0.00,,,0.00,Wunderground v.1.15,2013-02-15 08:58:00,
2013-02-15 03:02:00,41.3,38.9,30.02,SE,128,0.0,0.0,91,0.00,,,0.00,Wunderground v.1.15,2013-02-15 09:02:00,
2013-02-15 03:04:00,41.2,38.5,30.02,SE,128,0.0,0.0,90,0.00,,,0.00,Wunderground v.1.15,2013-02-15 09:04:00,
2013-02-15 03:07:00,41.1,38.4,30.02,SE,128,0.0,0.0,90,0.00,,,0.00,Wunderground v.1.15,2013-02-15 09:07:00,
2013-02-15 03:10:00,41.1,38.7,30.02,SE,128,0.0,0.0,91,0.00,,,0.00,Wunderground v.1.15,2013-02-15 09:10:00,
2013-02-15 03:12:00,40.9,38.5,30.02,SE,128,0.0,0.0,91,0.00,,,0.00,Wunderground v.1.15,2013-02-15 09:12:00,
2013-02-15 03:14:00,40.9,38.5,30.02,SE,128,0.0,0.0,91,0.00,,,0.00,Wunderground v.1.15,2013-02-15 09:14:00,
2013-02-15 03:17:00,40.8,38.4,30.01,SE,128,0.0,0.0,91,0.00,,,0.00,Wunderground v.1.15,2013-02-15 09:17:00,
2013-02-15 03:19:00,40.8,38.4,30.01,SE,128,0.0,0.0,91,0.00,,,0.00,Wunderground v.1.15,2013-02-15 09:19:00,
2013-02-15 03:22:00,40.8,38.4,30.01,SE,128,0.0,0.0,91,0.00,,,0.00,Wunderground v.1.15,2013-02-15 09:22:00,
2013-02-15 03:23:00,40.8,38.4,30.01,SE,128,0.0,0.0,91,0.00,,,0.00,Wunderground v.1.15,2013-02-15 09:23:00,
2013-02-15 03:24:00,40.8,38.4,30.01,SE,128,0.0,0.0,91,0.00,,,0.00,Wunderground v.1.15,2013-02-15 09:24:00,
2013-02-15 03:29:00,40.8,38.4,30.01,SE,128,0.0,0.0,91,0.00,,,0.00,Wunderground v.1.15,2013-02-15 09:29:00,
2013-02-15 03:30:00,40.8,38.4,30.01,SE,128,0.0,0.0,91,0.00,,,0.00,Wunderground v.1.15,2013-02-15 09:30:00,
2013-02-15 03:31:00,40.8,38.4,30.02,SE,128,0.0,0.0,91,0.00,,,0.00,Wunderground v.1.15,2013-02-15 09:31:00,
2013-02-15 03:32:00,40.8,38.4,30.02,SE,128,0.0,0.0,91,0.00,,,0.00,Wunderground v.1.15,2013-02-15 09:32:00,
2013-02-15 03:35:00,40.6,38.2,30.02,SE,128,0.0,0.0,91,0.00,,,0.00,Wunderground v.1.15,2013-02-15 09:35:00,
2013-02-15 03:37:00,40.6,38.2,30.02,SE,128,0.0,0.0,91,0.00,,,0.00,Wunderground v.1.15,2013-02-15 09:37:00,
2013-02-15 03:39:00,40.6,38.2,30.02,SE,128,0.0,0.0,91,0.00,,,0.00,Wunderground v.1.15,2013-02-15 09:39:00,
2013-02-15 03:41:00,40.5,38.1,30.02,SE,128,0.0,0.0,91,0.00,,,0.00,Wunderground v.1.15,2013-02-15 09:41:00,
2013-02-15 03:43:00,40.5,38.4,30.02,SE,128,0.0,0.0,92,0.00,,,0.00,Wunderground v.1.15,2013-02-15 09:43:00,
2013-02-15 03:47:00,40.5,38.4,30.02,SE,128,0.0,0.0,92,0.00,,,0.00,Wunderground v.1.15,2013-02-15 09:47:00,
2013-02-15 03:48:00,40.5,38.4,30.02,SE,128,0.0,0.0,92,0.00,,,0.00,Wunderground v.1.15,2013-02-15 09:48:00,
2013-02-15 03:49:00,40.5,38.4,30.02,SE,128,0.0,0.0,92,0.00,,,0.00,Wunderground v.1.15,2013-02-15 09:49:00,
2013-02-15 03:54:00,40.6,38.5,30.02,SE,128,0.0,0.0,92,0.00,,,0.00,Wunderground v.1.15,2013-02-15 09:54:00,
2013-02-15 03:55:00,40.6,38.5,30.02,SE,128,0.0,0.0,92,0.00,,,0.00,Wunderground v.1.15,2013-02-15 09:55:00,
2013-02-15 03:58:00,40.8,38.7,30.02,SE,128,0.0,0.0,92,0.00,,,0.00,Wunderground v.1.15,2013-02-15 09:58:00,
2013-02-15 03:59:00,40.8,38.7,30.02,SE,128,0.0,0.0,92,0.00,,,0.00,Wunderground v.1.15,2013-02-15 09:59:00,
2013-02-15 04:01:00,40.8,38.7,30.01,SE,128,0.0,0.0,92,0.00,,,0.00,Wunderground v.1.15,2013-02-15 10:01:00,
2013-02-15 04:06:00,40.6,38.5,30.01,SE,128,0.0,0.0,92,0.00,,,0.00,Wunderground v.1.15,2013-02-15 10:06:00,
2013-02-15 04:08:00,40.6,38.7,30.01,SE,128,0.0,0.0,93,0.00,,,0.00,Wunderground v.1.15,2013-02-15 10:08:00,
2013-02-15 04:09:00,40.6,38.5,30.01,SE,128,0.0,0.0,92,0.00,,,0.00,Wunderground v.1.15,2013-02-15 10:09:00,
2013-02-15 04:12:00,40.6,38.5,30.01,SE,128,0.0,0.0,92,0.00,,,0.00,Wunderground v.1.15,2013-02-15 10:12:00,
2013-02-15 04:13:00,40.6,38.5,30.01,SE,128,0.0,0.0,92,0.00,,,0.00,Wunderground v.1.15,2013-02-15 10:13:00,
2013-02-15 04:14:00,40.6,38.5,30.01,SE,128,0.0,0.0,92,0.00,,,0.00,Wunderground v.1.15,2013-02-15 10:14:00,
2013-02-15 04:17:00,40.6,38.7,30.01,SE,128,0.0,0.0,93,0.00,,,0.00,Wunderground v.1.15,2013-02-15 10:17:00,
2013-02-15 04:20:00,40.6,38.7,30.01,SE,128,0.0,0.0,93,0.00,,,0.00,Wunderground v.1.15,2013-02-15 10:20:00,
2013-02-15 04:22:00,40.5,38.6,30.01,SE,128,0.0,0.0,93,0.00,,,0.00,Wunderground v.1.15,2013-02-15 10:22:00,
2013-02-15 04:26:00,40.5,38.6,30.01,SE,128,0.0,0.0,93,0.00,,,0.00,Wunderground v.1.15,2013-02-15 10:26:00,
2013-02-15 04:29:00,40.3,38.4,30.01,SE,128,0.0,0.0,93,0.00,,,0.00,Wunderground v.1.15,2013-02-15 10:29:00,
2013-02-15 04:30:00,40.3,38.4,30.01,SE,128,0.0,0.0,93,0.00,,,0.00,Wunderground v.1.15,2013-02-15 10:30:00,
2013-02-15 04:36:00,40.5,38.6,30.01,SE,128,0.0,0.0,93,0.00,,,0.00,Wunderground v.1.15,2013-02-15 10:36:00,
2013-02-15 04:38:00,40.5,38.6,30.01,SE,128,0.0,0.0,93,0.00,,,0.00,Wunderground v.1.15,2013-02-15 10:38:00,
2013-02-15 04:40:00,40.5,38.6,30.01,SE,128,0.0,0.0,93,0.00,,,0.00,Wunderground v.1.15,2013-02-15 10:40:00,
2013-02-15 04:42:00,40.5,38.6,30.01,SE,128,0.0,0.0,93,0.00,,,0.00,Wunderground v.1.15,2013-02-15 10:42:00,
2013-02-15 04:43:00,40.5,38.6,30.01,SE,128,0.0,0.0,93,0.00,,,0.00,Wunderground v.1.15,2013-02-15 10:43:00,
2013-02-15 04:45:00,40.5,38.6,30.01,SE,128,0.0,0.0,93,0.00,,,0.00,Wunderground v.1.15,2013-02-15 10:45:00,
2013-02-15 04:48:00,40.5,38.6,30.02,SE,128,0.0,0.0,93,0.00,,,0.00,Wunderground v.1.15,2013-02-15 10:48:00,
2013-02-15 04:51:00,40.5,38.6,30.02,SE,128,0.0,0.0,93,0.00,,,0.00,Wunderground v.1.15,2013-02-15 10:51:00,
2013-02-15 04:52:00,40.5,38.6,30.02,SE,128,0.0,0.0,93,0.00,,,0.00,Wunderground v.1.15,2013-02-15 10:52:00,
2013-02-15 04:54:00,40.3,38.4,30.02,SE,128,0.0,0.0,93,0.00,,,0.00,Wunderground v.1.15,2013-02-15 10:54:00,
2013-02-15 04:56:00,40.3,38.4,30.02,SE,128,0.0,0.0,93,0.00,,,0.00,Wunderground v.1.15,2013-02-15 10:56:00,
2013-02-15 04:58:00,40.3,38.4,30.02,SE,128,0.0,0.0,93,0.00,,,0.00,Wunderground v.1.15,2013-02-15 10:58:00,
2013-02-15 04:59:00,40.3,38.4,30.02,SE,128,0.0,0.0,93,0.00,,,0.00,Wunderground v.1.15,2013-02-15 10:59:00,
2013-02-15 05:02:00,40.2,38.3,30.03,SE,128,0.0,0.0,93,0.00,,,0.00,Wunderground v.1.15,2013-02-15 11:02:00,
2013-02-15 05:03:00,40.2,38.3,30.03,SE,128,0.0,0.0,93,0.00,,,0.00,Wunderground v.1.15,2013-02-15 11:03:00,
2013-02-15 05:05:00,40.2,38.3,30.03,SE,128,0.0,0.0,93,0.00,,,0.00,Wunderground v.1.15,2013-02-15 11:05:00,
2013-02-15 05:06:00,40.2,38.3,30.03,SE,128,0.0,0.0,93,0.00,,,0.00,Wunderground v.1.15,2013-02-15 11:06:00,
2013-02-15 05:08:00,40.2,38.3,30.03,SE,128,0.0,0.0,93,0.00,,,0.00,Wunderground v.1.15,2013-02-15 11:08:00,
2013-02-15 05:10:00,40.2,38.3,30.03,SE,128,0.0,0.0,93,0.00,,,0.00,Wunderground v.1.15,2013-02-15 11:10:00,
2013-02-15 05:11:00,40.2,38.3,30.03,SE,128,0.0,0.0,93,0.00,,,0.00,Wunderground v.1.15,2013-02-15 11:11:00,
2013-02-15 05:15:00,40.1,38.2,30.03,SE,128,0.0,0.0,93,0.00,,,0.00,Wunderground v.1.15,2013-02-15 11:15:00,
2013-02-15 05:16:00,40.1,38.2,30.04,SE,128,0.0,0.0,93,0.00,,,0.00,Wunderground v.1.15,2013-02-15 11:16:00,
2013-02-15 05:17:00,40.1,38.2,30.04,SE,128,0.0,0.0,93,0.00,,,0.00,Wunderground v.1.15,2013-02-15 11:17:00,
2013-02-15 05:18:00,40.1,38.2,30.04,SE,128,0.0,0.0,93,0.00,,,0.00,Wunderground v.1.15,2013-02-15 11:18:00,
2013-02-15 05:21:00,40.1,38.2,30.04,SE,128,0.0,0.0,93,0.00,,,0.00,Wunderground v.1.15,2013-02-15 11:21:00,
2013-02-15 05:23:00,39.9,38.0,30.04,SE,128,0.0,0.0,93,0.00,,,0.00,Wunderground v.1.15,2013-02-15 11:23:00,
2013-02-15 05:25:00,39.9,38.0,30.04,SE,128,0.0,0.0,93,0.00,,,0.00,Wunderground v.1.15,2013-02-15 11:25:00,
2013-02-15 05:26:00,39.9,38.0,30.04,SE,128,0.0,0.0,93,0.00,,,0.00,Wunderground v.1.15,2013-02-15 11:26:00,
2013-02-15 05:28:00,39.9,38.0,30.04,SE,128,0.0,0.0,93,0.00,,,0.00,Wunderground v.1.15,2013-02-15 11:28:00,
2013-02-15 05:31:00,39.9,38.0,30.05,SE,128,0.0,0.0,93,0.00,,,0.00,Wunderground v.1.15,2013-02-15 11:31:00,
2013-02-15 05:32:00,39.9,38.0,30.05,SE,128,0.0,0.0,93,0.00,,,0.00,Wunderground v.1.15,2013-02-15 11:32:00,
2013-02-15 05:36:00,39.9,38.0,30.05,SE,128,0.0,0.0,93,0.00,,,0.00,Wunderground v.1.15,2013-02-15 11:36:00,
2013-02-15 05:38:00,39.9,38.3,30.05,SE,128,0.0,0.0,94,0.00,,,0.00,Wunderground v.1.15,2013-02-15 11:38:00,
2013-02-15 05:41:00,39.9,38.3,30.05,SE,128,0.0,0.0,94,0.00,,,0.00,Wunderground v.1.15,2013-02-15 11:41:00,
2013-02-15 05:43:00,39.9,38.3,30.05,SE,128,0.0,0.0,94,0.00,,,0.00,Wunderground v.1.15,2013-02-15 11:43:00,
2013-02-15 05:45:00,39.8,38.2,30.05,SE,128,0.0,0.0,94,0.00,,,0.00,Wunderground v.1.15,2013-02-15 11:45:00,
2013-02-15 05:47:00,39.8,38.2,30.05,SE,128,0.0,0.0,94,0.00,,,0.00,Wunderground v.1.15,2013-02-15 11:47:00,
2013-02-15 05:49:00,39.8,38.2,30.05,SE,128,0.0,0.0,94,0.00,,,0.00,Wunderground v.1.15,2013-02-15 11:49:00,
2013-02-15 05:50:00,39.8,38.2,30.05,SE,128,0.0,0.0,94,0.00,,,0.00,Wunderground v.1.15,2013-02-15 11:50:00,
2013-02-15 05:51:00,39.6,37.7,30.05,SE,128,0.0,0.0,93,0.00,,,0.00,Wunderground v.1.15,2013-02-15 11:51:00,
2013-02-15 05:55:00,39.6,38.0,30.05,SE,128,0.0,0.0,94,0.00,,,0.00,Wunderground v.1.15,2013-02-15 11:55:00,
2013-02-15 05:56:00,39.6,38.0,30.05,SE,128,0.0,0.0,94,0.00,,,0.00,Wunderground v.1.15,2013-02-15 11:56:00,
2013-02-15 05:57:00,39.6,38.0,30.05,SE,128,0.0,0.0,94,0.00,,,0.00,Wunderground v.1.15,2013-02-15 11:57:00,
2013-02-15 06:01:00,39.6,38.0,30.06,SE,128,0.0,0.0,94,0.00,,,0.00,Wunderground v.1.15,2013-02-15 12:01:00,
2013-02-15 06:02:00,39.6,38.0,30.06,SE,128,0.0,0.0,94,0.00,,,0.00,Wunderground v.1.15,2013-02-15 12:02:00,
2013-02-15 06:04:00,39.6,38.0,30.06,SE,128,0.0,0.0,94,0.00,,,0.00,Wunderground v.1.15,2013-02-15 12:04:00,
2013-02-15 06:06:00,39.6,38.0,30.06,SE,128,0.0,0.0,94,0.00,,,0.00,Wunderground v.1.15,2013-02-15 12:06:00,
2013-02-15 06:08:00,39.6,38.0,30.06,SE,128,0.0,0.0,94,0.00,,,0.00,Wunderground v.1.15,2013-02-15 12:08:00,
2013-02-15 06:11:00,39.8,38.2,30.06,SE,128,0.0,0.0,94,0.00,,,0.00,Wunderground v.1.15,2013-02-15 12:11:00,
2013-02-15 06:14:00,39.8,38.2,30.06,SE,128,0.0,0.0,94,0.00,,,0.00,Wunderground v.1.15,2013-02-15 12:14:00,
2013-02-15 06:17:00,39.9,38.3,30.07,SE,128,0.0,0.0,94,0.00,,,0.00,Wunderground v.1.15,2013-02-15 12:17:00,
2013-02-15 06:21:00,40.1,38.5,30.07,SE,128,0.0,0.0,94,0.00,,,0.00,Wunderground v.1.15,2013-02-15 12:21:00,
2013-02-15 06:22:00,40.1,38.5,30.07,SE,128,0.0,0.0,94,0.00,,,0.00,Wunderground v.1.15,2013-02-15 12:22:00,
2013-02-15 06:27:00,40.1,38.8,30.07,SE,128,0.0,0.0,95,0.00,,,0.00,Wunderground v.1.15,2013-02-15 12:27:00,
2013-02-15 06:29:00,40.2,38.9,30.07,SE,128,0.0,0.0,95,0.00,,,0.00,Wunderground v.1.15,2013-02-15 12:29:00,
2013-02-15 06:31:00,40.2,38.9,30.07,SE,128,0.0,0.0,95,0.00,,,0.00,Wunderground v.1.15,2013-02-15 12:31:00,
2013-02-15 06:33:00,40.3,39.0,30.07,SE,128,0.0,0.0,95,0.00,,,0.00,Wunderground v.1.15,2013-02-15 12:33:00,
2013-02-15 06:36:00,40.5,39.2,30.07,SE,128,0.0,0.0,95,0.00,,,0.00,Wunderground v.1.15,2013-02-15 12:36:00,
2013-02-15 06:38:00,40.6,39.3,30.07,SE,128,0.0,0.0,95,0.00,,,0.00,Wunderground v.1.15,2013-02-15 12:38:00,
2013-02-15 06:39:00,40.6,39.3,30.07,SE,128,0.0,0.0,95,0.00,,,0.00,Wunderground v.1.15,2013-02-15 12:39:00,
2013-02-15 06:42:00,40.8,39.5,30.07,SE,128,0.0,0.0,95,0.00,,,0.00,Wunderground v.1.15,2013-02-15 12:42:00,
2013-02-15 06:43:00,40.8,39.5,30.07,SE,128,0.0,0.0,95,0.00,,,0.00,Wunderground v.1.15,2013-02-15 12:43:00,
2013-02-15 06:45:00,40.9,39.6,30.07,SE,128,0.0,0.0,95,0.00,,,0.00,Wunderground v.1.15,2013-02-15 12:45:00,
2013-02-15 06:51:00,41.1,39.8,30.07,SE,128,0.0,0.0,95,0.00,,,0.00,Wunderground v.1.15,2013-02-15 12:51:00,
2013-02-15 06:52:00,41.1,39.8,30.07,SE,128,0.0,0.0,95,0.00,,,0.00,Wunderground v.1.15,2013-02-15 12:52:00,
2013-02-15 06:53:00,41.1,39.8,30.07,SE,128,0.0,0.0,95,0.00,,,0.00,Wunderground v.1.15,2013-02-15 12:53:00,
2013-02-15 06:54:00,41.1,39.8,30.07,SE,128,0.0,0.0,95,0.00,,,0.00,Wunderground v.1.15,2013-02-15 12:54:00,
2013-02-15 06:58:00,41.2,39.9,30.07,SE,128,0.0,0.0,95,0.00,,,0.00,Wunderground v.1.15,2013-02-15 12:58:00,
2013-02-15 06:59:00,41.2,39.9,30.07,SE,128,0.0,0.0,95,0.00,,,0.00,Wunderground v.1.15,2013-02-15 12:59:00,
2013-02-15 07:01:00,41.2,39.9,30.08,SE,128,0.0,0.0,95,0.00,,,0.00,Wunderground v.1.15,2013-02-15 13:01:00,
2013-02-15 07:03:00,41.2,39.9,30.08,SE,128,0.0,0.0,95,0.00,,,0.00,Wunderground v.1.15,2013-02-15 13:03:00,
2013-02-15 07:06:00,41.2,39.9,30.08,SE,128,0.0,0.0,95,0.00,,,0.00,Wunderground v.1.15,2013-02-15 13:06:00,
2013-02-15 07:08:00,41.2,39.9,30.08,SE,128,0.0,0.0,95,0.00,,,0.00,Wunderground v.1.15,2013-02-15 13:08:00,
2013-02-15 07:09:00,41.2,39.9,30.08,SE,128,0.0,0.0,95,0.00,,,0.00,Wunderground v.1.15,2013-02-15 13:09:00,
2013-02-15 07:10:00,41.2,39.9,30.08,SE,128,0.0,0.0,95,0.00,,,0.00,Wunderground v.1.15,2013-02-15 13:10:00,
2013-02-15 07:12:00,41.1,39.8,30.08,SE,128,0.0,0.0,95,0.00,,,0.00,Wunderground v.1.15,2013-02-15 13:12:00,
2013-02-15 07:14:00,41.1,39.8,30.08,SE,128,0.0,0.0,95,0.00,,,0.00,Wunderground v.1.15,2013-02-15 13:14:00,
2013-02-15 07:19:00,41.1,39.8,30.08,SE,128,0.0,0.0,95,0.00,,,0.00,Wunderground v.1.15,2013-02-15 13:19:00,
2013-02-15 07:21:00,41.1,39.8,30.08,SE,128,0.0,0.0,95,0.00,,,0.00,Wunderground v.1.15,2013-02-15 13:21:00,
2013-02-15 07:22:00,41.1,39.8,30.08,SE,128,0.0,0.0,95,0.00,,,0.00,Wunderground v.1.15,2013-02-15 13:22:00,
2013-02-15 07:24:00,41.1,39.8,30.08,SE,128,0.0,0.0,95,0.00,,,0.00,Wunderground v.1.15,2013-02-15 13:24:00,
2013-02-15 07:25:00,41.1,39.8,30.08,SE,128,0.0,0.0,95,0.00,,,0.00,Wunderground v.1.15,2013-02-15 13:25:00,
2013-02-15 07:29:00,41.3,40.0,30.08,SE,128,0.0,0.0,95,0.00,,,0.00,Wunderground v.1.15,2013-02-15 13:29:00,
2013-02-15 07:30:00,41.3,40.2,30.08,SE,128,0.0,0.0,96,0.00,,,0.00,Wunderground v.1.15,2013-02-15 13:30:00,
2013-02-15 07:31:00,41.5,40.4,30.08,SE,128,0.0,0.0,96,0.00,,,0.00,Wunderground v.1.15,2013-02-15 13:31:00,
2013-02-15 07:32:00,41.5,40.4,30.08,SE,128,0.0,0.0,96,0.00,,,0.00,Wunderground v.1.15,2013-02-15 13:32:00,
2013-02-15 07:35:00,41.9,40.8,30.08,SE,128,0.0,0.0,96,0.00,,,0.00,Wunderground v.1.15,2013-02-15 13:35:00,
2013-02-15 07:36:00,42.1,41.0,30.08,SE,128,0.0,0.0,96,0.00,,,0.00,Wunderground v.1.15,2013-02-15 13:36:00,
2013-02-15 07:37:00,42.2,41.1,30.08,SE,128,0.0,0.0,96,0.00,,,0.00,Wunderground v.1.15,2013-02-15 13:37:00,
2013-02-15 07:38:00,42.3,41.2,30.08,SE,128,0.0,0.0,96,0.00,,,0.00,Wunderground v.1.15,2013-02-15 13:38:00,
2013-02-15 07:41:00,42.8,41.7,30.08,SE,128,0.0,0.0,96,0.00,,,0.00,Wunderground v.1.15,2013-02-15 13:41:00,
2013-02-15 07:43:00,43.1,42.0,30.08,SE,128,0.0,0.0,96,0.00,,,0.00,Wunderground v.1.15,2013-02-15 13:43:00,
2013-02-15 07:46:00,43.5,42.4,30.09,SE,128,0.0,0.0,96,0.00,,,0.00,Wunderground v.1.15,2013-02-15 13:46:00,
2013-02-15 07:47:00,43.6,42.5,30.09,SE,128,0.0,0.0,96,0.00,,,0.00,Wunderground v.1.15,2013-02-15 13:47:00,
2013-02-15 07:49:00,43.9,42.8,30.09,SE,128,0.0,0.0,96,0.00,,,0.00,Wunderground v.1.15,2013-02-15 13:49:00,
2013-02-15 07:52:00,44.2,43.1,30.09,SE,128,0.0,0.0,96,0.00,,,0.00,Wunderground v.1.15,2013-02-15 13:52:00,
2013-02-15 07:54:00,44.5,43.2,30.09,SE,128,0.0,0.0,95,0.00,,,0.00,Wunderground v.1.15,2013-02-15 13:54:00,
2013-02-15 07:56:00,44.8,43.5,30.09,SE,128,0.0,0.0,95,0.00,,,0.00,Wunderground v.1.15,2013-02-15 13:56:00,
2013-02-15 07:58:00,44.9,43.6,30.09,SE,128,0.0,0.0,95,0.00,,,0.00,Wunderground v.1.15,2013-02-15 13:58:00,
2013-02-15 08:00:00,45.2,43.9,30.09,SE,128,0.0,0.0,95,0.00,,,0.00,Wunderground v.1.15,2013-02-15 14:00:00,
2013-02-15 08:03:00,45.5,44.2,30.09,SE,128,0.0,0.0,95,0.00,,,0.00,Wunderground v.1.15,2013-02-15 14:03:00,
2013-02-15 08:05:00,45.8,44.2,30.09,SE,128,0.0,0.0,94,0.00,,,0.00,Wunderground v.1.15,2013-02-15 14:05:00,
2013-02-15 08:06:00,46.0,44.4,30.09,SE,128,0.0,0.0,94,0.00,,,0.00,Wunderground v.1.15,2013-02-15 14:06:00,
2013-02-15 08:07:00,46.1,44.5,30.09,SE,128,0.0,0.0,94,0.00,,,0.00,Wunderground v.1.15,2013-02-15 14:07:00,
2013-02-15 08:12:00,46.5,44.6,30.09,SE,128,0.0,0.0,93,0.00,,,0.00,Wunderground v.1.15,2013-02-15 14:12:00,
2013-02-15 08:13:00,46.5,44.3,30.09,SE,128,0.0,0.0,92,0.00,,,0.00,Wunderground v.1.15,2013-02-15 14:13:00,
2013-02-15 08:15:00,46.8,44.6,30.09,SE,128,0.0,0.0,92,0.00,,,0.00,Wunderground v.1.15,2013-02-15 14:15:00,
2013-02-15 08:21:00,48.0,45.5,30.11,SE,128,0.0,0.0,91,0.00,,,0.00,Wunderground v.1.15,2013-02-15 14:21:00,
2013-02-15 08:23:00,48.2,45.4,30.11,ESE,115,0.0,0.0,90,0.00,,,0.00,Wunderground v.1.15,2013-02-15 14:23:00,
2013-02-15 08:25:00,48.3,45.2,30.11,ESE,115,0.0,0.0,89,0.00,,,0.00,Wunderground v.1.15,2013-02-15 14:25:00,
2013-02-15 08:28:00,48.6,44.9,30.11,ESE,115,0.0,0.0,87,0.00,,,0.00,Wunderground v.1.15,2013-02-15 14:28:00,
2013-02-15 08:29:00,48.6,44.9,30.11,ESE,115,0.0,0.0,87,0.00,,,0.00,Wunderground v.1.15,2013-02-15 14:29:00,
2013-02-15 08:31:00,48.8,44.8,30.11,ESE,115,0.0,0.0,86,0.00,,,0.00,Wunderground v.1.15,2013-02-15 14:31:00,
2013-02-15 08:35:00,49.1,44.8,30.11,ESE,112,0.0,0.0,85,0.00,,,0.00,Wunderground v.1.15,2013-02-15 14:35:00,
2013-02-15 08:36:00,49.2,44.9,30.11,ESE,112,0.0,0.0,85,0.00,,,0.00,Wunderground v.1.15,2013-02-15 14:36:00,
2013-02-15 08:37:00,49.4,45.1,30.11,ESE,112,0.0,0.0,85,0.00,,,0.00,Wunderground v.1.15,2013-02-15 14:37:00,
2013-02-15 08:39:00,49.5,44.9,30.11,ESE,112,0.0,0.0,84,0.00,,,0.00,Wunderground v.1.15,2013-02-15 14:39:00,
2013-02-15 08:42:00,49.8,44.8,30.11,ENE,59,0.0,0.0,83,0.00,,,0.00,Wunderground v.1.15,2013-02-15 14:42:00,
2013-02-15 08:44:00,50.1,45.1,30.11,ENE,59,0.0,0.0,83,0.00,,,0.00,Wunderground v.1.15,2013-02-15 14:44:00,
2013-02-15 08:45:00,50.2,45.2,30.11,ENE,58,0.0,0.0,83,0.00,,,0.00,Wunderground v.1.15,2013-02-15 14:45:00,
2013-02-15 08:49:00,50.8,45.5,30.13,North,11,0.0,0.0,82,0.00,,,0.00,Wunderground v.1.15,2013-02-15 14:49:00,
2013-02-15 08:50:00,51.0,45.7,30.13,North,351,0.0,2.0,82,0.00,,,0.00,Wunderground v.1.15,2013-02-15 14:50:00,
2013-02-15 08:54:00,51.6,45.6,30.13,NW,306,0.0,3.0,80,0.00,,,0.00,Wunderground v.1.15,2013-02-15 14:54:00,
2013-02-15 08:55:00,51.7,45.7,30.13,NW,306,0.0,3.0,80,0.00,,,0.00,Wunderground v.1.15,2013-02-15 14:55:00,
2013-02-15 08:56:00,51.9,45.6,30.13,NW,306,0.0,3.0,79,0.00,,,0.00,Wunderground v.1.15,2013-02-15 14:56:00,
2013-02-15 08:58:00,52.2,45.9,30.13,NW,307,0.0,3.0,79,0.00,,,0.00,Wunderground v.1.15,2013-02-15 14:58:00,
2013-02-15 09:03:00,52.6,45.6,30.14,NW,306,0.0,3.0,77,0.00,,,0.00,Wunderground v.1.15,2013-02-15 15:03:00,
2013-02-15 09:04:00,52.8,45.8,30.14,NW,306,0.0,3.0,77,0.00,,,0.00,Wunderground v.1.15,2013-02-15 15:04:00,
2013-02-15 09:06:00,52.9,45.5,30.14,NW,326,0.0,3.0,76,0.00,,,0.00,Wunderground v.1.15,2013-02-15 15:06:00,
2013-02-15 09:08:00,53.2,45.5,30.14,WNW,298,1.0,3.0,75,0.00,,,0.00,Wunderground v.1.15,2013-02-15 15:08:00,
2013-02-15 09:09:00,53.3,45.6,30.14,WNW,297,1.0,4.0,75,0.00,,,0.00,Wunderground v.1.15,2013-02-15 15:09:00,
2013-02-15 09:11:00,53.3,45.6,30.14,WNW,302,1.0,2.0,75,0.00,,,0.00,Wunderground v.1.15,2013-02-15 15:11:00,
2013-02-15 09:15:00,53.6,45.9,30.14,NNW,340,2.0,2.0,75,0.00,,,0.00,Wunderground v.1.15,2013-02-15 15:15:00,
2013-02-15 09:16:00,53.6,45.9,30.15,NW,311,2.0,2.0,75,0.00,,,0.00,Wunderground v.1.15,2013-02-15 15:16:00,
2013-02-15 09:17:00,53.8,46.1,30.15,North,360,2.0,2.0,75,0.00,,,0.00,Wunderground v.1.15,2013-02-15 15:17:00,
2013-02-15 09:18:00,53.8,46.1,30.15,WNW,299,2.0,3.0,75,0.00,,,0.00,Wunderground v.1.15,2013-02-15 15:18:00,
2013-02-15 09:23:00,53.6,45.9,30.15,NW,325,2.0,5.0,75,0.00,,,0.00,Wunderground v.1.15,2013-02-15 15:23:00,
2013-02-15 09:24:00,53.6,45.9,30.15,WNW,299,1.0,7.0,75,0.00,,,0.00,Wunderground v.1.15,2013-02-15 15:24:00,
2013-02-15 09:25:00,53.6,45.9,30.15,NNW,342,1.0,7.0,75,0.00,,,0.00,Wunderground v.1.15,2013-02-15 15:25:00,
2013-02-15 09:27:00,53.5,45.8,30.15,North,351,2.0,7.0,75,0.00,,,0.00,Wunderground v.1.15,2013-02-15 15:27:00,
2013-02-15 09:30:00,53.3,45.6,30.15,NNW,346,3.0,3.0,75,0.00,,,0.00,Wunderground v.1.15,2013-02-15 15:30:00,
2013-02-15 09:32:00,53.5,45.4,30.16,WNW,289,3.0,5.0,74,0.00,,,0.00,Wunderground v.1.15,2013-02-15 15:32:00,
2013-02-15 09:34:00,53.5,45.4,30.16,NNW,338,3.0,6.0,74,0.00,,,0.00,Wunderground v.1.15,2013-02-15 15:34:00,
2013-02-15 09:37:00,53.6,46.2,30.16,NNW,347,3.0,6.0,76,0.00,,,0.00,Wunderground v.1.15,2013-02-15 15:37:00,
2013-02-15 09:39:00,53.8,45.0,30.16,NNW,337,3.0,8.0,72,0.00,,,0.00,Wunderground v.1.15,2013-02-15 15:39:00,
2013-02-15 09:40:00,53.8,45.0,30.16,NW,315,3.0,3.0,72,0.00,,,0.00,Wunderground v.1.15,2013-02-15 15:40:00,
2013-02-15 09:46:00,54.4,44.4,30.15,North,351,3.0,6.0,69,0.00,,,0.00,Wunderground v.1.15,2013-02-15 15:46:00,
2013-02-15 09:47:00,54.4,44.4,30.15,NNW,333,3.0,6.0,69,0.00,,,0.00,Wunderground v.1.15,2013-02-15 15:47:00,
2013-02-15 09:52:00,54.8,44.4,30.15,NNW,328,2.0,7.0,68,0.00,,,0.00,Wunderground v.1.15,2013-02-15 15:52:00,
2013-02-15 09:54:00,55.0,44.6,30.15,NNW,333,3.0,7.0,68,0.00,,,0.00,Wunderground v.1.15,2013-02-15 15:54:00,
2013-02-15 09:56:00,55.3,44.5,30.15,NNW,335,2.0,7.0,67,0.00,,,0.00,Wunderground v.1.15,2013-02-15 15:56:00,
2013-02-15 09:57:00,55.3,44.5,30.15,NW,313,2.0,7.0,67,0.00,,,0.00,Wunderground v.1.15,2013-02-15 15:57:00,
2013-02-15 10:00:00,55.6,44.4,30.15,NW,322,3.0,4.0,66,0.00,,,0.00,Wunderground v.1.15,2013-02-15 16:00:00,
2013-02-15 10:03:00,55.7,43.7,30.15,NNW,336,3.0,7.0,64,0.00,,,0.00,Wunderground v.1.15,2013-02-15 16:03:00,
2013-02-15 10:04:00,55.7,43.7,30.15,WNW,295,3.0,7.0,64,0.00,,,0.00,Wunderground v.1.15,2013-02-15 16:04:00,
2013-02-15 10:10:00,56.3,43.9,30.15,WSW,246,3.0,3.0,63,0.00,,,0.00,Wunderground v.1.15,2013-02-15 16:10:00,
2013-02-15 10:12:00,56.5,43.6,30.15,NNW,332,3.0,3.0,62,0.00,,,0.00,Wunderground v.1.15,2013-02-15 16:12:00,
2013-02-15 10:14:00,56.6,43.7,30.15,WNW,287,3.0,5.0,62,0.00,,,0.00,Wunderground v.1.15,2013-02-15 16:14:00,
2013-02-15 10:16:00,56.7,43.8,30.15,NNW,338,2.0,5.0,62,0.00,,,0.00,Wunderground v.1.15,2013-02-15 16:16:00,
2013-02-15 10:18:00,57.0,43.7,30.15,NNW,344,2.0,5.0,61,0.00,,,0.00,Wunderground v.1.15,2013-02-15 16:18:00,
2013-02-15 10:21:00,57.3,43.5,30.15,North,351,2.0,4.0,60,0.00,,,0.00,Wunderground v.1.15,2013-02-15 16:21:00,
2013-02-15 10:22:00,57.5,43.7,30.15,NNE,16,2.0,4.0,60,0.00,,,0.00,Wunderground v.1.15,2013-02-15 16:22:00,
2013-02-15 10:24:00,57.6,43.4,30.15,NNW,337,1.0,5.0,59,0.00,,,0.00,Wunderground v.1.15,2013-02-15 16:24:00,
2013-02-15 10:26:00,57.8,43.6,30.15,NW,318,2.0,5.0,59,0.00,,,0.00,Wunderground v.1.15,2013-02-15 16:26:00,
2013-02-15 10:27:00,57.8,43.6,30.15,NW,307,2.0,5.0,59,0.00,,,0.00,Wunderground v.1.15,2013-02-15 16:27:00,
2013-02-15 10:30:00,58.3,44.0,30.15,WNW,294,1.0,1.0,59,0.00,,,0.00,Wunderground v.1.15,2013-02-15 16:30:00,
2013-02-15 10:31:00,58.4,43.7,30.15,NNW,337,1.0,1.0,58,0.00,,,0.00,Wunderground v.1.15,2013-02-15 16:31:00,
2013-02-15 10:33:00,58.7,43.5,30.15,NNW,327,1.0,3.0,57,0.00,,,0.00,Wunderground v.1.15,2013-02-15 16:33:00,
2013-02-15 10:34:00,58.9,43.7,30.15,North,351,1.0,3.0,57,0.00,,,0.00,Wunderground v.1.15,2013-02-15 16:34:00,
2013-02-15 10:38:00,59.6,43.9,30.15,North,5,1.0,3.0,56,0.00,,,0.00,Wunderground v.1.15,2013-02-15 16:38:00,
2013-02-15 10:39:00,59.6,43.9,30.15,NW,306,1.0,3.0,56,0.00,,,0.00,Wunderground v.1.15,2013-02-15 16:39:00,
2013-02-15 10:43:00,59.9,43.7,30.15,West,281,1.0,3.0,55,0.00,,,0.00,Wunderground v.1.15,2013-02-15 16:43:00,
2013-02-15 10:44:00,59.9,43.7,30.15,West,267,1.0,7.0,55,0.00,,,0.00,Wunderground v.1.15,2013-02-15 16:44:00,
2013-02-15 10:45:00,59.9,43.2,30.15,NW,309,2.0,7.0,54,0.00,,,0.00,Wunderground v.1.15,2013-02-15 16:45:00,
2013-02-15 10:46:00,59.9,43.2,30.15,NW,309,2.0,7.0,54,0.00,,,0.00,Wunderground v.1.15,2013-02-15 16:46:00,
2013-02-15 10:50:00,60.1,42.9,30.15,NW,324,2.0,2.0,53,0.00,,,0.00,Wunderground v.1.15,2013-02-15 16:50:00,
2013-02-15 10:51:00,60.2,43.5,30.15,West,273,2.0,2.0,54,0.00,,,0.00,Wunderground v.1.15,2013-02-15 16:51:00,
2013-02-15 10:54:00,60.4,43.2,30.15,North,9,2.0,5.0,53,0.00,,,0.00,Wunderground v.1.15,2013-02-15 16:54:00,
2013-02-15 10:56:00,60.5,42.8,30.15,West,280,2.0,5.0,52,0.00,,,0.00,Wunderground v.1.15,2013-02-15 16:56:00,
2013-02-15 10:57:00,60.5,42.8,30.15,West,280,1.0,5.0,52,0.00,,,0.00,Wunderground v.1.15,2013-02-15 16:57:00,
2013-02-15 10:59:00,60.9,43.1,30.15,North,351,1.0,5.0,52,0.00,,,0.00,Wunderground v.1.15,2013-02-15 16:59:00,
2013-02-15 11:03:00,61.0,42.7,30.15,WNW,295,2.0,8.0,51,0.00,,,0.00,Wunderground v.1.15,2013-02-15 17:03:00,
2013-02-15 11:07:00,61.0,42.2,30.15,NW,311,2.0,8.0,50,0.00,,,0.00,Wunderground v.1.15,2013-02-15 17:07:00,
2013-02-15 11:09:00,61.0,42.7,30.15,NNW,344,2.0,8.0,51,0.00,,,0.00,Wunderground v.1.15,2013-02-15 17:09:00,
2013-02-15 11:10:00,61.0,42.2,30.15,NNW,331,2.0,2.0,50,0.00,,,0.00,Wunderground v.1.15,2013-02-15 17:10:00,
2013-02-15 11:11:00,61.0,41.7,30.15,NNW,335,2.0,2.0,49,0.00,,,0.00,Wunderground v.1.15,2013-02-15 17:11:00,
2013-02-15 11:12:00,61.0,42.7,30.15,WNW,286,2.0,4.0,51,0.00,,,0.00,Wunderground v.1.15,2013-02-15 17:12:00,
2013-02-15 11:15:00,61.2,42.4,30.15,WNW,298,1.0,6.0,50,0.00,,,0.00,Wunderground v.1.15,2013-02-15 17:15:00,
2013-02-15 11:16:00,61.3,42.5,30.15,WNW,294,1.0,6.0,50,0.00,,,0.00,Wunderground v.1.15,2013-02-15 17:16:00,
2013-02-15 11:17:00,61.3,42.5,30.15,WNW,294,1.0,6.0,50,0.00,,,0.00,Wunderground v.1.15,2013-02-15 17:17:00,
2013-02-15 11:21:00,62.0,42.6,30.15,West,267,1.0,6.0,49,0.00,,,0.00,Wunderground v.1.15,2013-02-15 17:21:00,
2013-02-15 11:22:00,62.0,42.6,30.15,WNW,298,1.0,6.0,49,0.00,,,0.00,Wunderground v.1.15,2013-02-15 17:22:00,
2013-02-15 11:23:00,62.1,42.7,30.15,NW,304,1.0,6.0,49,0.00,,,0.00,Wunderground v.1.15,2013-02-15 17:23:00,
2013-02-15 11:25:00,62.1,42.2,30.15,NW,305,1.0,6.0,48,0.00,,,0.00,Wunderground v.1.15,2013-02-15 17:25:00,
2013-02-15 11:30:00,62.3,41.8,30.15,WNW,289,1.0,5.0,47,0.00,,,0.00,Wunderground v.1.15,2013-02-15 17:30:00,
2013-02-15 11:31:00,62.3,41.8,30.14,WNW,287,2.0,5.0,47,0.00,,,0.00,Wunderground v.1.15,2013-02-15 17:31:00,
2013-02-15 11:32:00,62.3,41.8,30.14,WNW,288,1.0,5.0,47,0.00,,,0.00,Wunderground v.1.15,2013-02-15 17:32:00,
2013-02-15 11:35:00,62.3,42.3,30.14,North,360,1.0,5.0,48,0.00,,,0.00,Wunderground v.1.15,2013-02-15 17:35:00,
2013-02-15 11:36:00,62.3,41.8,30.14,North,360,1.0,5.0,47,0.00,,,0.00,Wunderground v.1.15,2013-02-15 17:36:00,
2013-02-15 11:40:00,62.9,41.8,30.14,ENE,66,1.0,1.0,46,0.00,,,0.00,Wunderground v.1.15,2013-02-15 17:40:00,
2013-02-15 11:42:00,63.1,40.8,30.14,West,275,1.0,2.0,44,0.00,,,0.00,Wunderground v.1.15,2013-02-15 17:42:00,
2013-02-15 11:45:00,62.9,40.6,30.14,NNW,342,1.0,4.0,44,0.00,,,0.00,Wunderground v.1.15,2013-02-15 17:45:00,
2013-02-15 11:46:00,63.1,41.4,30.14,NE,35,1.0,4.0,45,0.00,,,0.00,Wunderground v.1.15,2013-02-15 17:46:00,
2013-02-15 11:52:00,63.4,41.7,30.14,WNW,290,1.0,5.0,45,0.00,,,0.00,Wunderground v.1.15,2013-02-15 17:52:00,
2013-02-15 11:54:00,63.4,41.1,30.14,WNW,289,1.0,5.0,44,0.00,,,0.00,Wunderground v.1.15,2013-02-15 17:54:00,
2013-02-15 11:58:00,63.5,40.6,30.14,NNW,344,1.0,5.0,43,0.00,,,0.00,Wunderground v.1.15,2013-02-15 17:58:00,
2013-02-15 11:59:00,63.7,40.8,30.14,NNW,336,1.0,5.0,43,0.00,,,0.00,Wunderground v.1.15,2013-02-15 17:59:00,
2013-02-15 12:00:00,63.7,41.4,30.14,NW,313,1.0,1.0,44,0.00,,,0.00,Wunderground v.1.15,2013-02-15 18:00:00,
2013-02-15 12:01:00,63.9,41.0,30.13,NNW,340,1.0,6.0,43,0.00,,,0.00,Wunderground v.1.15,2013-02-15 18:01:00,
2013-02-15 12:05:00,64.0,39.8,30.13,NW,304,1.0,7.0,41,0.00,,,0.00,Wunderground v.1.15,2013-02-15 18:05:00,
2013-02-15 12:07:00,64.0,39.8,30.13,WNW,297,2.0,7.0,41,0.00,,,0.00,Wunderground v.1.15,2013-02-15 18:07:00,
2013-02-15 12:08:00,64.0,40.4,30.13,NW,307,2.0,7.0,42,0.00,,,0.00,Wunderground v.1.15,2013-02-15 18:08:00,
2013-02-15 12:12:00,64.2,40.0,30.13,WNW,288,2.0,2.0,41,0.00,,,0.00,Wunderground v.1.15,2013-02-15 18:12:00,
2013-02-15 12:13:00,64.2,40.0,30.13,NNW,340,1.0,2.0,41,0.00,,,0.00,Wunderground v.1.15,2013-02-15 18:13:00,
2013-02-15 12:14:00,64.2,40.0,30.13,NNW,330,1.0,2.0,41,0.00,,,0.00,Wunderground v.1.15,2013-02-15 18:14:00,
2013-02-15 12:15:00,64.3,40.7,30.13,NW,318,1.0,2.0,42,0.00,,,0.00,Wunderground v.1.15,2013-02-15 18:15:00,
2013-02-15 12:20:00,64.5,40.3,30.12,WNW,295,0.0,0.0,41,0.00,,,0.00,Wunderground v.1.15,2013-02-15 18:20:00,
2013-02-15 12:22:00,64.7,39.8,30.12,West,263,0.0,0.0,40,0.00,,,0.00,Wunderground v.1.15,2013-02-15 18:22:00,
2013-02-15 12:23:00,64.7,40.4,30.12,NW,304,0.0,1.0,41,0.00,,,0.00,Wunderground v.1.15,2013-02-15 18:23:00,
2013-02-15 12:26:00,64.7,39.8,30.12,NW,323,1.0,2.0,40,0.00,,,0.00,Wunderground v.1.15,2013-02-15 18:26:00,
2013-02-15 12:28:00,64.7,39.2,30.12,WNW,294,1.0,2.0,39,0.00,,,0.00,Wunderground v.1.15,2013-02-15 18:28:00,
2013-02-15 12:29:00,64.7,39.2,30.12,NW,314,2.0,2.0,39,0.00,,,0.00,Wunderground v.1.15,2013-02-15 18:29:00,
2013-02-15 12:33:00,64.8,38.6,30.11,WNW,296,2.0,2.0,38,0.00,,,0.00,Wunderground v.1.15,2013-02-15 18:33:00,
2013-02-15 12:34:00,64.8,38.6,30.11,WNW,296,1.0,2.0,38,0.00,,,0.00,Wunderground v.1.15,2013-02-15 18:34:00,
2013-02-15 12:39:00,65.3,39.7,30.11,North,351,0.0,2.0,39,0.00,,,0.00,Wunderground v.1.15,2013-02-15 18:39:00,
2013-02-15 12:40:00,65.5,39.2,30.11,NNW,339,0.0,4.0,38,0.00,,,0.00,Wunderground v.1.15,2013-02-15 18:40:00,
2013-02-15 12:42:00,65.6,38.6,30.11,NNW,348,1.0,4.0,37,0.00,,,0.00,Wunderground v.1.15,2013-02-15 18:42:00,
2013-02-15 12:43:00,65.6,38.6,30.11,NNW,346,1.0,4.0,37,0.00,,,0.00,Wunderground v.1.15,2013-02-15 18:43:00,
2013-02-15 12:45:00,66.0,39.7,30.11,WNW,298,1.0,4.0,38,0.00,,,0.00,Wunderground v.1.15,2013-02-15 18:45:00,
2013-02-15 12:48:00,66.0,39.0,30.11,WNW,297,1.0,4.0,37,0.00,,,0.00,Wunderground v.1.15,2013-02-15 18:48:00,
2013-02-15 12:51:00,66.0,38.3,30.11,NW,323,1.0,1.0,36,0.00,,,0.00,Wunderground v.1.15,2013-02-15 18:51:00,
2013-02-15 12:53:00,66.0,38.3,30.11,NNW,327,1.0,4.0,36,0.00,,,0.00,Wunderground v.1.15,2013-02-15 18:53:00,
2013-02-15 12:54:00,66.0,38.3,30.11,NW,318,1.0,4.0,36,0.00,,,0.00,Wunderground v.1.15,2013-02-15 18:54:00,
2013-02-15 12:55:00,66.0,37.5,30.11,WNW,300,1.0,4.0,35,0.00,,,0.00,Wunderground v.1.15,2013-02-15 18:55:00,
2013-02-15 12:58:00,66.1,38.4,30.11,NNW,340,0.0,4.0,36,0.00,,,0.00,Wunderground v.1.15,2013-02-15 18:58:00,
2013-02-15 13:00:00,66.3,38.5,30.11,North,360,1.0,1.0,36,0.00,,,0.00,Wunderground v.1.15,2013-02-15 19:00:00,
2013-02-15 13:01:00,66.1,38.4,30.10,NNW,333,1.0,3.0,36,0.00,,,0.00,Wunderground v.1.15,2013-02-15 19:01:00,
2013-02-15 13:04:00,66.0,38.3,30.10,NNW,333,1.0,7.0,36,0.00,,,0.00,Wunderground v.1.15,2013-02-15 19:04:00,
2013-02-15 13:06:00,66.1,37.6,30.10,NNW,333,1.0,7.0,35,0.00,,,0.00,Wunderground v.1.15,2013-02-15 19:06:00,
2013-02-15 13:09:00,66.3,39.9,30.10,NNW,327,1.0,7.0,38,0.00,,,0.00,Wunderground v.1.15,2013-02-15 19:09:00,
2013-02-15 13:11:00,66.6,38.8,30.10,ENE,67,1.0,3.0,36,0.00,,,0.00,Wunderground v.1.15,2013-02-15 19:11:00,
2013-02-15 13:13:00,66.8,39.0,30.10,WNW,302,1.0,3.0,36,0.00,,,0.00,Wunderground v.1.15,2013-02-15 19:13:00,
2013-02-15 13:17:00,66.8,37.5,30.09,NW,313,2.0,4.0,34,0.00,,,0.00,Wunderground v.1.15,2013-02-15 19:17:00,
2013-02-15 13:19:00,66.6,37.3,30.09,West,271,2.0,7.0,34,0.00,,,0.00,Wunderground v.1.15,2013-02-15 19:19:00,
2013-02-15 13:23:00,66.6,37.3,30.09,NW,315,2.0,2.0,34,0.00,,,0.00,Wunderground v.1.15,2013-02-15 19:23:00,
2013-02-15 13:25:00,66.6,37.3,30.09,North,351,1.0,2.0,34,0.00,,,0.00,Wunderground v.1.15,2013-02-15 19:25:00,
2013-02-15 13:28:00,66.8,39.0,30.09,NNW,333,1.0,3.0,36,0.00,,,0.00,Wunderground v.1.15,2013-02-15 19:28:00,
2013-02-15 13:32:00,67.1,38.5,30.08,North,351,1.0,1.0,35,0.00,,,0.00,Wunderground v.1.15,2013-02-15 19:32:00,
2013-02-15 13:34:00,67.4,40.2,30.08,North,351,1.0,1.0,37,0.00,,,0.00,Wunderground v.1.15,2013-02-15 19:34:00,
2013-02-15 13:40:00,67.9,37.7,30.08,NNE,14,0.0,0.0,33,0.00,,,0.00,Wunderground v.1.15,2013-02-15 19:40:00,
2013-02-15 13:43:00,67.8,38.4,30.08,ENE,67,1.0,1.0,34,0.00,,,0.00,Wunderground v.1.15,2013-02-15 19:43:00,
2013-02-15 13:45:00,67.8,38.4,30.08,NW,325,1.0,1.0,34,0.00,,,0.00,Wunderground v.1.15,2013-02-15 19:45:00,
2013-02-15 13:46:00,67.8,39.1,30.08,NNW,339,1.0,4.0,35,0.00,,,0.00,Wunderground v.1.15,2013-02-15 19:46:00,
2013-02-15 13:48:00,67.6,38.2,30.08,North,351,1.0,4.0,34,0.00,,,0.00,Wunderground v.1.15,2013-02-15 19:48:00,
2013-02-15 13:49:00,67.6,38.2,30.08,North,351,1.0,4.0,34,0.00,,,0.00,Wunderground v.1.15,2013-02-15 19:49:00,
2013-02-15 13:52:00,67.6,38.2,30.08,WNW,299,1.0,7.0,34,0.00,,,0.00,Wunderground v.1.15,2013-02-15 19:52:00,
2013-02-15 13:54:00,67.6,37.5,30.08,NW,310,1.0,7.0,33,0.00,,,0.00,Wunderground v.1.15,2013-02-15 19:54:00,
2013-02-15 13:55:00,67.6,37.5,30.08,NW,314,1.0,7.0,33,0.00,,,0.00,Wunderground v.1.15,2013-02-15 19:55:00,
2013-02-15 13:56:00,67.4,38.0,30.08,WNW,297,1.0,7.0,34,0.00,,,0.00,Wunderground v.1.15,2013-02-15 19:56:00,
2013-02-15 14:02:00,67.4,38.0,30.08,NW,304,2.0,7.0,34,0.00,,,0.00,Wunderground v.1.15,2013-02-15 20:02:00,
2013-02-15 14:03:00,67.3,38.0,30.08,NW,313,3.0,7.0,34,0.00,,,0.00,Wunderground v.1.15,2013-02-15 20:03:00,
2013-02-15 14:04:00,67.3,38.0,30.08,NW,310,3.0,7.0,34,0.00,,,0.00,Wunderground v.1.15,2013-02-15 20:04:00,
2013-02-15 14:08:00,67.4,37.3,30.08,WNW,298,2.0,7.0,33,0.00,,,0.00,Wunderground v.1.15,2013-02-15 20:08:00,
2013-02-15 14:09:00,67.4,37.3,30.08,NNW,343,1.0,7.0,33,0.00,,,0.00,Wunderground v.1.15,2013-02-15 20:09:00,
2013-02-15 14:10:00,67.4,38.0,30.08,NNW,338,1.0,1.0,34,0.00,,,0.00,Wunderground v.1.15,2013-02-15 20:10:00,
2013-02-15 14:14:00,67.6,38.2,30.08,WNW,294,0.0,1.0,34,0.00,,,0.00,Wunderground v.1.15,2013-02-15 20:14:00,
2013-02-15 14:16:00,67.6,39.0,30.06,NNW,332,0.0,4.0,35,0.00,,,0.00,Wunderground v.1.15,2013-02-15 20:16:00,
2013-02-15 14:19:00,67.8,38.4,30.06,NW,306,1.0,4.0,34,0.00,,,0.00,Wunderground v.1.15,2013-02-15 20:19:00,
2013-02-15 14:20:00,67.9,39.2,30.06,WNW,302,1.0,10.0,35,0.00,,,0.00,Wunderground v.1.15,2013-02-15 20:20:00,
2013-02-15 14:21:00,67.9,39.2,30.06,NNW,344,1.0,10.0,35,0.00,,,0.00,Wunderground v.1.15,2013-02-15 20:21:00,
2013-02-15 14:22:00,67.8,37.6,30.06,NNE,15,2.0,10.0,33,0.00,,,0.00,Wunderground v.1.15,2013-02-15 20:22:00,
2013-02-15 14:27:00,67.4,38.0,30.06,NW,323,3.0,10.0,34,0.00,,,0.00,Wunderground v.1.15,2013-02-15 20:27:00,
2013-02-15 14:28:00,67.3,38.0,30.06,NW,321,3.0,10.0,34,0.00,,,0.00,Wunderground v.1.15,2013-02-15 20:28:00,
2013-02-15 14:30:00,67.3,38.7,30.06,NW,323,3.0,8.0,35,0.00,,,0.00,Wunderground v.1.15,2013-02-15 20:30:00,
2013-02-15 14:33:00,67.3,38.0,30.06,NNW,338,3.0,8.0,34,0.00,,,0.00,Wunderground v.1.15,2013-02-15 20:33:00,
2013-02-15 14:34:00,67.1,37.8,30.06,NE,38,4.0,8.0,34,0.00,,,0.00,Wunderground v.1.15,2013-02-15 20:34:00,
2013-02-15 14:39:00,67.3,39.4,30.06,NW,324,3.0,8.0,36,0.00,,,0.00,Wunderground v.1.15,2013-02-15 20:39:00,
2013-02-15 14:40:00,67.3,38.0,30.06,NW,305,3.0,6.0,34,0.00,,,0.00,Wunderground v.1.15,2013-02-15 20:40:00,
2013-02-15 14:42:00,67.3,38.7,30.06,NW,308,2.0,6.0,35,0.00,,,0.00,Wunderground v.1.15,2013-02-15 20:42:00,
2013-02-15 14:46:00,67.4,38.8,30.06,NW,306,2.0,6.0,35,0.00,,,0.00,Wunderground v.1.15,2013-02-15 20:46:00,
2013-02-15 14:47:00,67.6,38.2,30.06,NW,313,2.0,6.0,34,0.00,,,0.00,Wunderground v.1.15,2013-02-15 20:47:00,
2013-02-15 14:48:00,67.6,38.2,30.06,NW,306,2.0,6.0,34,0.00,,,0.00,Wunderground v.1.15,2013-02-15 20:48:00,
2013-02-15 14:49:00,67.6,38.2,30.06,WNW,303,2.0,6.0,34,0.00,,,0.00,Wunderground v.1.15,2013-02-15 20:49:00,
2013-02-15 14:54:00,67.6,37.5,30.06,NW,308,1.0,1.0,33,0.00,,,0.00,Wunderground v.1.15,2013-02-15 20:54:00,
2013-02-15 14:55:00,67.6,36.7,30.06,NW,317,2.0,2.0,32,0.00,,,0.00,Wunderground v.1.15,2013-02-15 20:55:00,
2013-02-15 14:58:00,67.6,36.7,30.06,NW,312,2.0,2.0,32,0.00,,,0.00,Wunderground v.1.15,2013-02-15 20:58:00,
2013-02-15 15:00:00,67.6,37.5,30.06,NNE,28,2.0,2.0,33,0.00,,,0.00,Wunderground v.1.15,2013-02-15 21:00:00,
2013-02-15 15:01:00,67.8,37.6,30.05,North,360,1.0,5.0,33,0.00,,,0.00,Wunderground v.1.15,2013-02-15 21:01:00,
2013-02-15 15:05:00,67.8,37.6,30.05,NW,321,1.0,13.0,33,0.00,,,0.00,Wunderground v.1.15,2013-02-15 21:05:00,
2013-02-15 15:06:00,67.8,36.8,30.05,North,351,1.0,13.0,32,0.00,,,0.00,Wunderground v.1.15,2013-02-15 21:06:00,
2013-02-15 15:10:00,67.9,36.9,30.05,NNW,342,1.0,7.0,32,0.00,,,0.00,Wunderground v.1.15,2013-02-15 21:10:00,
2013-02-15 15:11:00,67.8,36.0,30.05,NNW,341,1.0,7.0,31,0.00,,,0.00,Wunderground v.1.15,2013-02-15 21:11:00,
2013-02-15 15:12:00,67.8,36.0,30.05,NNW,335,1.0,7.0,31,0.00,,,0.00,Wunderground v.1.15,2013-02-15 21:12:00,
2013-02-15 15:13:00,67.6,35.9,30.05,NNW,332,1.0,7.0,31,0.00,,,0.00,Wunderground v.1.15,2013-02-15 21:13:00,
2013-02-15 15:17:00,67.6,36.7,30.05,North,349,1.0,7.0,32,0.00,,,0.00,Wunderground v.1.15,2013-02-15 21:17:00,
2013-02-15 15:18:00,67.6,36.7,30.05,WNW,303,2.0,7.0,32,0.00,,,0.00,Wunderground v.1.15,2013-02-15 21:18:00,
2013-02-15 15:19:00,67.4,36.5,30.05,NNW,335,2.0,7.0,32,0.00,,,0.00,Wunderground v.1.15,2013-02-15 21:19:00,
2013-02-15 15:20:00,67.4,36.5,30.05,NW,313,2.0,2.0,32,0.00,,,0.00,Wunderground v.1.15,2013-02-15 21:20:00,
2013-02-15 15:25:00,67.8,36.8,30.05,North,360,1.0,2.0,32,0.00,,,0.00,Wunderground v.1.15,2013-02-15 21:25:00,
2013-02-15 15:26:00,67.8,36.8,30.05,NNW,340,1.0,3.0,32,0.00,,,0.00,Wunderground v.1.15,2013-02-15 21:26:00,
2013-02-15 15:31:00,67.8,36.8,30.05,WNW,302,1.0,1.0,32,0.00,,,0.00,Wunderground v.1.15,2013-02-15 21:31:00,
2013-02-15 15:32:00,67.8,37.6,30.05,WNW,289,1.0,3.0,33,0.00,,,0.00,Wunderground v.1.15,2013-02-15 21:32:00,
2013-02-15 15:34:00,67.8,37.6,30.05,NW,307,1.0,3.0,33,0.00,,,0.00,Wunderground v.1.15,2013-02-15 21:34:00,
2013-02-15 15:35:00,67.6,38.2,30.05,WNW,288,1.0,3.0,34,0.00,,,0.00,Wunderground v.1.15,2013-02-15 21:35:00,
2013-02-15 15:40:00,67.6,38.2,30.05,NNW,337,1.0,1.0,34,0.00,,,0.00,Wunderground v.1.15,2013-02-15 21:40:00,
2013-02-15 15:41:00,67.6,38.2,30.05,WNW,300,1.0,1.0,34,0.00,,,0.00,Wunderground v.1.15,2013-02-15 21:41:00,
2013-02-15 15:42:00,67.6,39.0,30.05,West,261,1.0,1.0,35,0.00,,,0.00,Wunderground v.1.15,2013-02-15 21:42:00,
2013-02-15 15:46:00,67.4,39.5,30.05,NW,309,2.0,5.0,36,0.00,,,0.00,Wunderground v.1.15,2013-02-15 21:46:00,
2013-02-15 15:47:00,67.3,39.4,30.05,NNW,344,2.0,5.0,36,0.00,,,0.00,Wunderground v.1.15,2013-02-15 21:47:00,
2013-02-15 15:48:00,67.1,39.2,30.05,WNW,290,2.0,5.0,36,0.00,,,0.00,Wunderground v.1.15,2013-02-15 21:48:00,
2013-02-15 15:53:00,66.4,39.3,30.05,NW,318,3.0,11.0,37,0.00,,,0.00,Wunderground v.1.15,2013-02-15 21:53:00,
2013-02-15 15:54:00,66.3,39.2,30.05,WNW,284,4.0,11.0,37,0.00,,,0.00,Wunderground v.1.15,2013-02-15 21:54:00,
2013-02-15 16:00:00,66.1,39.7,30.05,WNW,297,3.0,3.0,38,0.00,,,0.00,Wunderground v.1.15,2013-02-15 22:00:00,
2013-02-15 16:01:00,66.1,39.7,30.05,NW,321,3.0,4.0,38,0.00,,,0.00,Wunderground v.1.15,2013-02-15 22:01:00,
2013-02-15 16:02:00,66.1,39.1,30.05,North,351,2.0,6.0,37,0.00,,,0.00,Wunderground v.1.15,2013-02-15 22:02:00,
2013-02-15 16:06:00,66.0,39.7,30.05,NNW,340,3.0,9.0,38,0.00,,,0.00,Wunderground v.1.15,2013-02-15 22:06:00,
2013-02-15 16:07:00,65.8,38.8,30.05,NW,311,3.0,9.0,37,0.00,,,0.00,Wunderground v.1.15,2013-02-15 22:07:00,
2013-02-15 16:08:00,65.6,39.3,30.05,NNW,336,4.0,9.0,38,0.00,,,0.00,Wunderground v.1.15,2013-02-15 22:08:00,
2013-02-15 16:09:00,65.6,39.3,30.05,NNW,336,4.0,9.0,38,0.00,,,0.00,Wunderground v.1.15,2013-02-15 22:09:00,
2013-02-15 16:13:00,65.3,39.7,30.05,NW,326,5.0,8.0,39,0.00,,,0.00,Wunderground v.1.15,2013-02-15 22:13:00,
2013-02-15 16:15:00,65.3,39.7,30.05,NW,325,4.0,12.0,39,0.00,,,0.00,Wunderground v.1.15,2013-02-15 22:15:00,
2013-02-15 16:18:00,65.0,39.4,30.06,North,351,4.0,12.0,39,0.00,,,0.00,Wunderground v.1.15,2013-02-15 22:18:00,
2013-02-15 16:22:00,65.0,39.4,30.06,NNW,328,4.0,4.0,39,0.00,,,0.00,Wunderground v.1.15,2013-02-15 22:22:00,
2013-02-15 16:23:00,65.0,39.4,30.06,NW,304,4.0,4.0,39,0.00,,,0.00,Wunderground v.1.15,2013-02-15 22:23:00,
2013-02-15 16:26:00,64.8,39.2,30.06,NNW,344,4.0,6.0,39,0.00,,,0.00,Wunderground v.1.15,2013-02-15 22:26:00,
2013-02-15 16:28:00,64.7,39.8,30.06,WNW,299,3.0,6.0,40,0.00,,,0.00,Wunderground v.1.15,2013-02-15 22:28:00,
2013-02-15 16:32:00,64.7,39.2,30.06,WNW,284,3.0,3.0,39,0.00,,,0.00,Wunderground v.1.15,2013-02-15 22:32:00,
2013-02-15 16:35:00,64.5,39.0,30.06,NNW,331,3.0,8.0,39,0.00,,,0.00,Wunderground v.1.15,2013-02-15 22:35:00,
2013-02-15 16:38:00,64.3,38.8,30.06,WNW,303,4.0,8.0,39,0.00,,,0.00,Wunderground v.1.15,2013-02-15 22:38:00,
2013-02-15 16:39:00,64.3,38.8,30.06,WNW,293,5.0,8.0,39,0.00,,,0.00,Wunderground v.1.15,2013-02-15 22:39:00,
2013-02-15 16:42:00,64.0,38.5,30.06,WNW,286,5.0,6.0,39,0.00,,,0.00,Wunderground v.1.15,2013-02-15 22:42:00,
2013-02-15 16:44:00,64.0,39.2,30.06,NNW,346,5.0,6.0,40,0.00,,,0.00,Wunderground v.1.15,2013-02-15 22:44:00,
2013-02-15 16:45:00,64.0,39.2,30.06,NNW,341,5.0,6.0,40,0.00,,,0.00,Wunderground v.1.15,2013-02-15 22:45:00,
2013-02-15 16:47:00,64.0,39.2,30.07,North,351,5.0,6.0,40,0.00,,,0.00,Wunderground v.1.15,2013-02-15 22:47:00,
2013-02-15 16:50:00,63.9,39.1,30.07,NW,321,4.0,4.0,40,0.00,,,0.00,Wunderground v.1.15,2013-02-15 22:50:00,
2013-02-15 16:51:00,63.9,39.1,30.07,NW,307,4.0,4.0,40,0.00,,,0.00,Wunderground v.1.15,2013-02-15 22:51:00,
2013-02-15 16:53:00,63.7,38.9,30.07,NNW,346,4.0,8.0,40,0.00,,,0.00,Wunderground v.1.15,2013-02-15 22:53:00,
2013-02-15 16:58:00,63.4,38.6,30.07,North,351,5.0,13.0,40,0.00,,,0.00,Wunderground v.1.15,2013-02-15 22:58:00,
2013-02-15 17:01:00,63.2,38.5,30.07,NNW,337,5.0,8.0,40,0.00,,,0.00,Wunderground v.1.15,2013-02-15 23:01:00,
2013-02-15 17:04:00,63.2,39.1,30.07,North,351,5.0,8.0,41,0.00,,,0.00,Wunderground v.1.15,2013-02-15 23:04:00,
2013-02-15 17:07:00,63.1,39.0,30.07,NNW,348,4.0,8.0,41,0.00,,,0.00,Wunderground v.1.15,2013-02-15 23:07:00,
2013-02-15 17:10:00,63.1,38.4,30.07,NNW,346,4.0,4.0,40,0.00,,,0.00,Wunderground v.1.15,2013-02-15 23:10:00,
2013-02-15 17:14:00,62.9,38.2,30.07,NNW,334,3.0,4.0,40,0.00,,,0.00,Wunderground v.1.15,2013-02-15 23:14:00,
2013-02-15 17:15:00,62.9,38.8,30.07,NW,322,3.0,4.0,41,0.00,,,0.00,Wunderground v.1.15,2013-02-15 23:15:00,
2013-02-15 17:19:00,62.7,38.0,30.08,NNE,32,3.0,5.0,40,0.00,,,0.00,Wunderground v.1.15,2013-02-15 23:19:00,
2013-02-15 17:21:00,62.7,38.6,30.08,North,9,3.0,7.0,41,0.00,,,0.00,Wunderground v.1.15,2013-02-15 23:21:00,
2013-02-15 17:22:00,62.7,38.6,30.08,North,11,2.0,7.0,41,0.00,,,0.00,Wunderground v.1.15,2013-02-15 23:22:00,
2013-02-15 17:26:00,62.6,38.6,30.08,NNW,342,2.0,7.0,41,0.00,,,0.00,Wunderground v.1.15,2013-02-15 23:26:00,
2013-02-15 17:27:00,62.6,38.6,30.08,NW,314,2.0,7.0,41,0.00,,,0.00,Wunderground v.1.15,2013-02-15 23:27:00,
2013-02-15 17:29:00,62.6,38.6,30.08,North,351,2.0,7.0,41,0.00,,,0.00,Wunderground v.1.15,2013-02-15 23:29:00,
2013-02-15 17:33:00,62.4,39.0,30.08,NW,306,2.0,2.0,42,0.00,,,0.00,Wunderground v.1.15,2013-02-15 23:33:00,
2013-02-15 17:38:00,62.3,38.9,30.08,North,360,1.0,3.0,42,0.00,,,0.00,Wunderground v.1.15,2013-02-15 23:38:00,
2013-02-15 17:39:00,62.3,38.9,30.08,NNW,333,1.0,3.0,42,0.00,,,0.00,Wunderground v.1.15,2013-02-15 23:39:00,
2013-02-15 17:40:00,62.3,38.9,30.08,WNW,285,1.0,11.0,42,0.00,,,0.00,Wunderground v.1.15,2013-02-15 23:40:00,
2013-02-15 17:44:00,62.0,39.2,30.08,NNW,333,2.0,11.0,43,0.00,,,0.00,Wunderground v.1.15,2013-02-15 23:44:00,
2013-02-15 17:45:00,61.8,39.1,30.08,NNW,331,3.0,11.0,43,0.00,,,0.00,Wunderground v.1.15,2013-02-15 23:45:00,
2013-02-15 17:48:00,61.6,39.5,30.09,North,350,4.0,11.0,44,0.00,,,0.00,Wunderground v.1.15,2013-02-15 23:48:00,
2013-02-15 17:51:00,61.3,39.2,30.09,NW,306,5.0,7.0,44,0.00,,,0.00,Wunderground v.1.15,2013-02-15 23:51:00,
2013-02-15 17:54:00,61.0,38.9,30.09,NNW,348,5.0,7.0,44,0.00,,,0.00,Wunderground v.1.15,2013-02-15 23:54:00,
2013-02-15 17:56:00,60.9,39.4,30.09,North,360,4.0,7.0,45,0.00,,,0.00,Wunderground v.1.15,2013-02-15 23:56:00,
2013-02-15 17:58:00,60.9,39.4,30.09,NW,309,4.0,7.0,45,0.00,,,0.00,Wunderground v.1.15,2013-02-15 23:58:00,
2013-02-15 18:00:00,60.7,38.6,30.09,NNE,15,4.0,6.0,44,0.00,,,0.00,Wunderground v.1.15,2013-02-16 00:00:00,
2013-02-15 18:05:00,60.4,38.9,30.09,NNW,331,3.0,11.0,45,0.00,,,0.00,Wunderground v.1.15,2013-02-16 00:05:00,
2013-02-15 18:06:00,60.4,38.9,30.09,NNW,347,4.0,11.0,45,0.00,,,0.00,Wunderground v.1.15,2013-02-16 00:06:00,
2013-02-15 18:07:00,60.2,38.8,30.09,NNW,344,4.0,11.0,45,0.00,,,0.00,Wunderground v.1.15,2013-02-16 00:07:00,
2013-02-15 18:10:00,60.1,38.7,30.09,NW,325,3.0,3.0,45,0.00,,,0.00,Wunderground v.1.15,2013-02-16 00:10:00,
2013-02-15 18:13:00,59.9,39.1,30.09,North,351,3.0,4.0,46,0.00,,,0.00,Wunderground v.1.15,2013-02-16 00:13:00,
2013-02-15 18:14:00,59.8,39.0,30.09,NW,326,2.0,4.0,46,0.00,,,0.00,Wunderground v.1.15,2013-02-16 00:14:00,
2013-02-15 18:19:00,59.5,39.2,30.09,NNW,339,3.0,11.0,47,0.00,,,0.00,Wunderground v.1.15,2013-02-16 00:19:00,
2013-02-15 18:20:00,59.5,39.2,30.09,North,360,3.0,3.0,47,0.00,,,0.00,Wunderground v.1.15,2013-02-16 00:20:00,
2013-02-15 18:23:00,59.3,39.1,30.09,NNW,331,4.0,4.0,47,0.00,,,0.00,Wunderground v.1.15,2013-02-16 00:23:00,
2013-02-15 18:25:00,59.2,39.0,30.09,NW,311,4.0,4.0,47,0.00,,,0.00,Wunderground v.1.15,2013-02-16 00:25:00,
2013-02-15 18:26:00,59.2,39.0,30.09,North,351,4.0,5.0,47,0.00,,,0.00,Wunderground v.1.15,2013-02-16 00:26:00,
2013-02-15 18:31:00,58.9,39.2,30.11,North,350,3.0,4.0,48,0.00,,,0.00,Wunderground v.1.15,2013-02-16 00:31:00,
2013-02-15 18:32:00,58.9,39.2,30.11,NNW,330,3.0,4.0,48,0.00,,,0.00,Wunderground v.1.15,2013-02-16 00:32:00,
2013-02-15 18:34:00,58.7,39.6,30.11,NNW,332,3.0,4.0,49,0.00,,,0.00,Wunderground v.1.15,2013-02-16 00:34:00,
2013-02-15 18:38:00,58.6,39.5,30.11,NNW,336,3.0,6.0,49,0.00,,,0.00,Wunderground v.1.15,2013-02-16 00:38:00,
2013-02-15 18:39:00,58.6,39.5,30.11,NNE,29,3.0,6.0,49,0.00,,,0.00,Wunderground v.1.15,2013-02-16 00:39:00,
2013-02-15 18:41:00,58.6,40.0,30.11,North,351,3.0,6.0,50,0.00,,,0.00,Wunderground v.1.15,2013-02-16 00:41:00,
2013-02-15 18:42:00,58.4,39.8,30.11,NW,319,3.0,6.0,50,0.00,,,0.00,Wunderground v.1.15,2013-02-16 00:42:00,
2013-02-15 18:44:00,58.4,39.8,30.11,NNW,331,3.0,8.0,50,0.00,,,0.00,Wunderground v.1.15,2013-02-16 00:44:00,
2013-02-15 18:48:00,58.1,40.1,30.11,North,351,4.0,8.0,51,0.00,,,0.00,Wunderground v.1.15,2013-02-16 00:48:00,
2013-02-15 18:49:00,58.1,40.6,30.11,NNW,332,4.0,8.0,52,0.00,,,0.00,Wunderground v.1.15,2013-02-16 00:49:00,
2013-02-15 18:50:00,58.0,40.5,30.11,NNW,327,4.0,4.0,52,0.00,,,0.00,Wunderground v.1.15,2013-02-16 00:50:00,
2013-02-15 18:53:00,57.6,40.6,30.11,North,5,5.0,5.0,53,0.00,,,0.00,Wunderground v.1.15,2013-02-16 00:53:00,
2013-02-15 18:55:00,57.3,40.8,30.11,North,350,4.0,5.0,54,0.00,,,0.00,Wunderground v.1.15,2013-02-16 00:55:00,
2013-02-15 18:58:00,57.2,40.7,30.11,North,360,3.0,5.0,54,0.00,,,0.00,Wunderground v.1.15,2013-02-16 00:58:00,
2013-02-15 19:01:00,56.9,40.4,30.12,North,360,3.0,11.0,54,0.00,,,0.00,Wunderground v.1.15,2013-02-16 01:01:00,
2013-02-15 19:03:00,56.9,40.4,30.12,NNE,14,3.0,11.0,54,0.00,,,0.00,Wunderground v.1.15,2013-02-16 01:03:00,
2013-02-15 19:05:00,56.7,40.7,30.12,North,360,2.0,11.0,55,0.00,,,0.00,Wunderground v.1.15,2013-02-16 01:05:00,
2013-02-15 19:07:00,56.7,40.7,30.12,WNW,302,2.0,11.0,55,0.00,,,0.00,Wunderground v.1.15,2013-02-16 01:07:00,
2013-02-15 19:11:00,56.5,40.5,30.12,NNW,336,3.0,4.0,55,0.00,,,0.00,Wunderground v.1.15,2013-02-16 01:11:00,
2013-02-15 19:12:00,56.5,40.5,30.12,NNW,348,4.0,8.0,55,0.00,,,0.00,Wunderground v.1.15,2013-02-16 01:12:00,
2013-02-15 19:14:00,56.3,40.3,30.12,North,351,4.0,8.0,55,0.00,,,0.00,Wunderground v.1.15,2013-02-16 01:14:00,
2013-02-15 19:20:00,56.2,40.2,30.14,NNE,19,6.0,6.0,55,0.00,,,0.00,Wunderground v.1.15,2013-02-16 01:20:00,
2013-02-15 19:21:00,56.2,40.2,30.14,NNE,26,6.0,6.0,55,0.00,,,0.00,Wunderground v.1.15,2013-02-16 01:21:00,
2013-02-15 19:23:00,56.0,40.5,30.14,NNE,15,5.0,8.0,56,0.00,,,0.00,Wunderground v.1.15,2013-02-16 01:23:00,
2013-02-15 19:25:00,56.0,40.5,30.14,NNW,342,4.0,8.0,56,0.00,,,0.00,Wunderground v.1.15,2013-02-16 01:25:00,
2013-02-15 19:31:00,55.9,40.4,30.14,North,351,4.0,4.0,56,0.00,,,0.00,Wunderground v.1.15,2013-02-16 01:31:00,
2013-02-15 19:32:00,55.9,40.4,30.14,NNE,26,4.0,5.0,56,0.00,,,0.00,Wunderground v.1.15,2013-02-16 01:32:00,
2013-02-15 19:34:00,55.9,40.4,30.14,NNW,340,4.0,9.0,56,0.00,,,0.00,Wunderground v.1.15,2013-02-16 01:34:00,
2013-02-15 19:35:00,55.9,40.4,30.14,NE,41,4.0,9.0,56,0.00,,,0.00,Wunderground v.1.15,2013-02-16 01:35:00,
2013-02-15 19:40:00,55.7,40.7,30.14,NNW,336,5.0,5.0,57,0.00,,,0.00,Wunderground v.1.15,2013-02-16 01:40:00,
2013-02-15 19:41:00,55.7,40.7,30.14,NW,310,5.0,5.0,57,0.00,,,0.00,Wunderground v.1.15,2013-02-16 01:41:00,
2013-02-15 19:42:00,55.7,40.7,30.14,North,351,5.0,5.0,57,0.00,,,0.00,Wunderground v.1.15,2013-02-16 01:42:00,
2013-02-15 19:44:00,55.6,40.6,30.14,North,9,5.0,5.0,57,0.00,,,0.00,Wunderground v.1.15,2013-02-16 01:44:00,
2013-02-15 19:47:00,55.6,40.6,30.15,NNW,339,4.0,6.0,57,0.00,,,0.00,Wunderground v.1.15,2013-02-16 01:47:00,
2013-02-15 19:51:00,55.4,40.9,30.15,North,10,3.0,3.0,58,0.00,,,0.00,Wunderground v.1.15,2013-02-16 01:51:00,
2013-02-15 19:52:00,55.4,40.9,30.15,North,351,3.0,3.0,58,0.00,,,0.00,Wunderground v.1.15,2013-02-16 01:52:00,
2013-02-15 19:53:00,55.4,40.9,30.15,North,351,3.0,3.0,58,0.00,,,0.00,Wunderground v.1.15,2013-02-16 01:53:00,
2013-02-15 19:56:00,55.4,40.9,30.15,NW,324,3.0,9.0,58,0.00,,,0.00,Wunderground v.1.15,2013-02-16 01:56:00,
2013-02-15 19:59:00,55.3,40.8,30.15,North,360,3.0,9.0,58,0.00,,,0.00,Wunderground v.1.15,2013-02-16 01:59:00,
2013-02-15 20:00:00,55.3,40.8,30.15,North,360,3.0,3.0,58,0.00,,,0.00,Wunderground v.1.15,2013-02-16 02:00:00,
2013-02-15 20:01:00,55.3,41.2,30.16,North,360,3.0,9.0,59,0.00,,,0.00,Wunderground v.1.15,2013-02-16 02:01:00,
2013-02-15 20:05:00,55.1,41.0,30.16,NNE,30,4.0,13.0,59,0.00,,,0.00,Wunderground v.1.15,2013-02-16 02:05:00,
2013-02-15 20:07:00,55.1,41.5,30.16,NNW,330,5.0,13.0,60,0.00,,,0.00,Wunderground v.1.15,2013-02-16 02:07:00,
2013-02-15 20:08:00,55.1,41.5,30.16,NNE,19,4.0,13.0,60,0.00,,,0.00,Wunderground v.1.15,2013-02-16 02:08:00,
2013-02-15 20:11:00,55.0,41.4,30.16,NW,325,5.0,6.0,60,0.00,,,0.00,Wunderground v.1.15,2013-02-16 02:11:00,
2013-02-15 20:12:00,54.8,41.2,30.16,WNW,293,4.0,6.0,60,0.00,,,0.00,Wunderground v.1.15,2013-02-16 02:12:00,
2013-02-15 20:14:00,54.7,41.1,30.16,North,360,4.0,10.0,60,0.00,,,0.00,Wunderground v.1.15,2013-02-16 02:14:00,
2013-02-15 20:16:00,54.7,41.1,30.17,North,351,4.0,18.0,60,0.00,,,0.00,Wunderground v.1.15,2013-02-16 02:16:00,
2013-02-15 20:20:00,54.4,40.8,30.17,NNW,340,5.0,7.0,60,0.00,,,0.00,Wunderground v.1.15,2013-02-16 02:20:00,
2013-02-15 20:21:00,54.2,40.6,30.17,North,351,6.0,7.0,60,0.00,,,0.00,Wunderground v.1.15,2013-02-16 02:21:00,
2013-02-15 20:22:00,54.2,40.2,30.17,North,360,6.0,7.0,59,0.00,,,0.00,Wunderground v.1.15,2013-02-16 02:22:00,
2013-02-15 20:28:00,54.1,40.5,30.17,NNW,340,6.0,8.0,60,0.00,,,0.00,Wunderground v.1.15,2013-02-16 02:28:00,
2013-02-15 20:32:00,54.1,40.5,30.18,North,11,4.0,5.0,60,0.00,,,0.00,Wunderground v.1.15,2013-02-16 02:32:00,
2013-02-15 20:34:00,53.9,40.3,30.18,NW,309,4.0,8.0,60,0.00,,,0.00,Wunderground v.1.15,2013-02-16 02:34:00,
2013-02-15 20:36:00,53.8,40.2,30.18,North,360,3.0,8.0,60,0.00,,,0.00,Wunderground v.1.15,2013-02-16 02:36:00,
2013-02-15 20:40:00,53.6,40.0,30.18,NW,322,4.0,4.0,60,0.00,,,0.00,Wunderground v.1.15,2013-02-16 02:40:00,
2013-02-15 20:46:00,53.3,39.3,30.20,North,351,4.0,10.0,59,0.00,,,0.00,Wunderground v.1.15,2013-02-16 02:46:00,
2013-02-15 20:47:00,53.3,39.3,30.20,NNW,348,5.0,10.0,59,0.00,,,0.00,Wunderground v.1.15,2013-02-16 02:47:00,
2013-02-15 20:48:00,53.3,39.3,30.20,NNE,33,4.0,10.0,59,0.00,,,0.00,Wunderground v.1.15,2013-02-16 02:48:00,
2013-02-15 20:51:00,53.2,38.4,30.20,North,360,5.0,10.0,57,0.00,,,0.00,Wunderground v.1.15,2013-02-16 02:51:00,
2013-02-15 20:54:00,53.1,38.3,30.20,NW,313,4.0,10.0,57,0.00,,,0.00,Wunderground v.1.15,2013-02-16 02:54:00,
2013-02-15 20:55:00,53.1,38.3,30.20,NW,311,4.0,10.0,57,0.00,,,0.00,Wunderground v.1.15,2013-02-16 02:55:00,
2013-02-15 20:56:00,53.1,37.8,30.20,NNW,345,4.0,4.0,56,0.00,,,0.00,Wunderground v.1.15,2013-02-16 02:56:00,
2013-02-15 21:00:00,53.1,37.8,30.20,North,360,3.0,7.0,56,0.00,,,0.00,Wunderground v.1.15,2013-02-16 03:00:00,
2013-02-15 21:05:00,52.9,37.2,30.20,ENE,71,3.0,8.0,55,0.00,,,0.00,Wunderground v.1.15,2013-02-16 03:05:00,
2013-02-15 21:06:00,52.9,37.2,30.20,NNE,27,3.0,11.0,55,0.00,,,0.00,Wunderground v.1.15,2013-02-16 03:06:00,
2013-02-15 21:08:00,52.8,37.1,30.20,North,349,4.0,11.0,55,0.00,,,0.00,Wunderground v.1.15,2013-02-16 03:08:00,
2013-02-15 21:13:00,52.8,37.1,30.20,NNW,335,5.0,8.0,55,0.00,,,0.00,Wunderground v.1.15,2013-02-16 03:13:00,
2013-02-15 21:14:00,52.8,37.1,30.20,NNW,339,4.0,8.0,55,0.00,,,0.00,Wunderground v.1.15,2013-02-16 03:14:00,
2013-02-15 21:16:00,52.6,36.9,30.21,NNW,342,4.0,8.0,55,0.00,,,0.00,Wunderground v.1.15,2013-02-16 03:16:00,
2013-02-15 21:18:00,52.6,36.9,30.21,NNW,348,3.0,11.0,55,0.00,,,0.00,Wunderground v.1.15,2013-02-16 03:18:00,
2013-02-15 21:20:00,52.6,36.9,30.21,NNW,335,3.0,13.0,55,0.00,,,0.00,Wunderground v.1.15,2013-02-16 03:20:00,
2013-02-15 21:22:00,52.6,36.9,30.21,North,360,3.0,13.0,55,0.00,,,0.00,Wunderground v.1.15,2013-02-16 03:22:00,
2013-02-15 21:24:00,52.6,36.9,30.21,NW,323,3.0,13.0,55,0.00,,,0.00,Wunderground v.1.15,2013-02-16 03:24:00,
2013-02-15 21:25:00,52.6,36.9,30.21,NNW,347,3.0,13.0,55,0.00,,,0.00,Wunderground v.1.15,2013-02-16 03:25:00,
2013-02-15 21:29:00,52.5,36.8,30.21,NNW,342,4.0,13.0,55,0.00,,,0.00,Wunderground v.1.15,2013-02-16 03:29:00,
2013-02-15 21:30:00,52.5,36.8,30.21,NNW,328,4.0,4.0,55,0.00,,,0.00,Wunderground v.1.15,2013-02-16 03:30:00,
2013-02-15 21:32:00,52.5,37.2,30.22,NNW,343,3.0,4.0,56,0.00,,,0.00,Wunderground v.1.15,2013-02-16 03:32:00,
2013-02-15 21:35:00,52.5,37.2,30.22,NNW,327,4.0,5.0,56,0.00,,,0.00,Wunderground v.1.15,2013-02-16 03:35:00,
2013-02-15 21:37:00,52.3,37.1,30.22,WNW,293,4.0,13.0,56,0.00,,,0.00,Wunderground v.1.15,2013-02-16 03:37:00,
2013-02-15 21:38:00,52.3,37.1,30.22,NNW,346,4.0,13.0,56,0.00,,,0.00,Wunderground v.1.15,2013-02-16 03:38:00,
2013-02-15 21:40:00,52.3,37.1,30.22,NNE,24,5.0,5.0,56,0.00,,,0.00,Wunderground v.1.15,2013-02-16 03:40:00,
2013-02-15 21:43:00,52.2,37.4,30.22,NNW,339,5.0,5.0,57,0.00,,,0.00,Wunderground v.1.15,2013-02-16 03:43:00,
2013-02-15 21:45:00,52.2,37.4,30.22,North,350,4.0,5.0,57,0.00,,,0.00,Wunderground v.1.15,2013-02-16 03:45:00,
2013-02-15 21:48:00,52.2,37.4,30.22,NNW,336,2.0,5.0,57,0.00,,,0.00,Wunderground v.1.15,2013-02-16 03:48:00,
2013-02-15 21:50:00,52.2,37.4,30.22,NNW,342,2.0,2.0,57,0.00,,,0.00,Wunderground v.1.15,2013-02-16 03:50:00,
2013-02-15 21:54:00,52.0,37.2,30.22,North,351,2.0,5.0,57,0.00,,,0.00,Wunderground v.1.15,2013-02-16 03:54:00,
2013-02-15 21:56:00,52.0,37.2,30.22,NNW,344,3.0,7.0,57,0.00,,,0.00,Wunderground v.1.15,2013-02-16 03:56:00,
2013-02-15 21:57:00,52.0,37.7,30.22,NNW,347,3.0,7.0,58,0.00,,,0.00,Wunderground v.1.15,2013-02-16 03:57:00,
2013-02-15 21:59:00,52.0,37.7,30.22,North,351,3.0,7.0,58,0.00,,,0.00,Wunderground v.1.15,2013-02-16 03:59:00,
2013-02-15 22:00:00,52.0,37.7,30.22,NNW,333,3.0,4.0,58,0.00,,,0.00,Wunderground v.1.15,2013-02-16 04:00:00,
2013-02-15 22:02:00,52.0,37.7,30.23,North,351,3.0,10.0,58,0.00,,,0.00,Wunderground v.1.15,2013-02-16 04:02:00,
2013-02-15 22:05:00,51.9,37.6,30.23,NNW,340,3.0,10.0,58,0.00,,,0.00,Wunderground v.1.15,2013-02-16 04:05:00,
2013-02-15 22:06:00,51.9,37.6,30.23,NNW,345,3.0,10.0,58,0.00,,,0.00,Wunderground v.1.15,2013-02-16 04:06:00,
2013-02-15 22:07:00,51.9,37.6,30.23,NNW,342,2.0,10.0,58,0.00,,,0.00,Wunderground v.1.15,2013-02-16 04:07:00,
2013-02-15 22:10:00,51.9,37.6,30.23,NNE,28,3.0,4.0,58,0.00,,,0.00,Wunderground v.1.15,2013-02-16 04:10:00,
2013-02-15 22:12:00,51.7,37.4,30.23,North,9,3.0,9.0,58,0.00,,,0.00,Wunderground v.1.15,2013-02-16 04:12:00,
2013-02-15 22:15:00,51.7,37.4,30.23,NNW,348,4.0,9.0,58,0.00,,,0.00,Wunderground v.1.15,2013-02-16 04:15:00,
2013-02-15 22:16:00,51.7,37.8,30.23,NNW,331,5.0,9.0,59,0.00,,,0.00,Wunderground v.1.15,2013-02-16 04:16:00,
2013-02-15 22:17:00,51.7,37.8,30.23,North,11,5.0,9.0,59,0.00,,,0.00,Wunderground v.1.15,2013-02-16 04:17:00,
2013-02-15 22:22:00,51.3,37.9,30.23,North,351,6.0,12.0,60,0.00,,,0.00,Wunderground v.1.15,2013-02-16 04:22:00,
2013-02-15 22:23:00,51.3,37.9,30.23,North,350,6.0,12.0,60,0.00,,,0.00,Wunderground v.1.15,2013-02-16 04:23:00,
2013-02-15 22:24:00,51.3,38.3,30.23,NNW,348,6.0,12.0,61,0.00,,,0.00,Wunderground v.1.15,2013-02-16 04:24:00,
2013-02-15 22:25:00,51.1,38.1,30.23,North,360,5.0,12.0,61,0.00,,,0.00,Wunderground v.1.15,2013-02-16 04:25:00,
2013-02-15 22:28:00,51.0,38.0,30.23,NNW,347,6.0,12.0,61,0.00,,,0.00,Wunderground v.1.15,2013-02-16 04:28:00,
2013-02-15 22:30:00,51.0,38.4,30.23,North,349,6.0,6.0,62,0.00,,,0.00,Wunderground v.1.15,2013-02-16 04:30:00,
2013-02-15 22:34:00,50.8,38.2,30.24,NNW,329,4.0,6.0,62,0.00,,,0.00,Wunderground v.1.15,2013-02-16 04:34:00,
2013-02-15 22:36:00,50.8,38.2,30.24,North,350,4.0,6.0,62,0.00,,,0.00,Wunderground v.1.15,2013-02-16 04:36:00,
2013-02-15 22:39:00,50.7,38.6,30.24,WNW,289,3.0,6.0,63,0.00,,,0.00,Wunderground v.1.15,2013-02-16 04:39:00,
2013-02-15 22:41:00,50.7,38.6,30.24,NNW,343,3.0,4.0,63,0.00,,,0.00,Wunderground v.1.15,2013-02-16 04:41:00,
2013-02-15 22:42:00,50.7,38.6,30.24,ENE,57,3.0,4.0,63,0.00,,,0.00,Wunderground v.1.15,2013-02-16 04:42:00,
2013-02-15 22:43:00,50.7,39.0,30.24,North,11,3.0,4.0,64,0.00,,,0.00,Wunderground v.1.15,2013-02-16 04:43:00,
2013-02-15 22:47:00,50.4,38.7,30.24,North,360,4.0,7.0,64,0.00,,,0.00,Wunderground v.1.15,2013-02-16 04:47:00,
2013-02-15 22:48:00,50.4,39.1,30.24,NNW,340,4.0,11.0,65,0.00,,,0.00,Wunderground v.1.15,2013-02-16 04:48:00,
2013-02-15 22:51:00,50.2,38.9,30.24,NW,317,4.0,4.0,65,0.00,,,0.00,Wunderground v.1.15,2013-02-16 04:51:00,
2013-02-15 22:54:00,50.1,39.2,30.24,NNW,336,3.0,4.0,66,0.00,,,0.00,Wunderground v.1.15,2013-02-16 04:54:00,
2013-02-15 22:56:00,50.1,39.6,30.24,North,360,2.0,4.0,67,0.00,,,0.00,Wunderground v.1.15,2013-02-16 04:56:00,
2013-02-15 22:58:00,49.9,39.4,30.24,NW,325,2.0,4.0,67,0.00,,,0.00,Wunderground v.1.15,2013-02-16 04:58:00,
2013-02-15 23:00:00,49.8,39.7,30.24,NNE,15,2.0,4.0,68,0.00,,,0.00,Wunderground v.1.15,2013-02-16 05:00:00,
2013-02-15 23:01:00,49.6,39.5,30.25,NNW,337,2.0,12.0,68,0.00,,,0.00,Wunderground v.1.15,2013-02-16 05:01:00,
2013-02-15 23:02:00,49.6,39.5,30.25,NNW,346,2.0,12.0,68,0.00,,,0.00,Wunderground v.1.15,2013-02-16 05:02:00,
2013-02-15 23:05:00,49.4,39.7,30.25,NE,40,3.0,12.0,69,0.00,,,0.00,Wunderground v.1.15,2013-02-16 05:05:00,
2013-02-15 23:06:00,49.4,39.3,30.25,NNW,343,3.0,12.0,68,0.00,,,0.00,Wunderground v.1.15,2013-02-16 05:06:00,
2013-02-15 23:07:00,49.4,39.7,30.25,NNW,342,3.0,12.0,69,0.00,,,0.00,Wunderground v.1.15,2013-02-16 05:07:00,
2013-02-15 23:11:00,49.2,39.5,30.25,NNE,22,2.0,3.0,69,0.00,,,0.00,Wunderground v.1.15,2013-02-16 05:11:00,
2013-02-15 23:12:00,49.2,39.1,30.25,NNW,344,2.0,3.0,68,0.00,,,0.00,Wunderground v.1.15,2013-02-16 05:12:00,
2013-02-15 23:13:00,49.2,39.1,30.25,NNW,346,2.0,3.0,68,0.00,,,0.00,Wunderground v.1.15,2013-02-16 05:13:00,
2013-02-15 23:18:00,49.2,39.1,30.25,North,349,2.0,8.0,68,0.00,,,0.00,Wunderground v.1.15,2013-02-16 05:18:00,
2013-02-15 23:19:00,49.2,39.1,30.25,NE,39,2.0,8.0,68,0.00,,,0.00,Wunderground v.1.15,2013-02-16 05:19:00,
2013-02-15 23:23:00,49.2,38.7,30.25,NNW,347,1.0,7.0,67,0.00,,,0.00,Wunderground v.1.15,2013-02-16 05:23:00,
2013-02-15 23:25:00,49.2,38.7,30.25,NNW,331,2.0,7.0,67,0.00,,,0.00,Wunderground v.1.15,2013-02-16 05:25:00,
2013-02-15 23:26:00,49.2,38.7,30.25,North,351,1.0,7.0,67,0.00,,,0.00,Wunderground v.1.15,2013-02-16 05:26:00,
2013-02-15 23:30:00,49.1,37.4,30.25,NW,309,2.0,2.0,64,0.00,,,0.00,Wunderground v.1.15,2013-02-16 05:30:00,
2013-02-15 23:31:00,49.1,37.0,30.25,NW,323,2.0,4.0,63,0.00,,,0.00,Wunderground v.1.15,2013-02-16 05:31:00,
2013-02-15 23:33:00,49.1,36.6,30.25,NW,315,2.0,4.0,62,0.00,,,0.00,Wunderground v.1.15,2013-02-16 05:33:00,
2013-02-15 23:36:00,49.2,35.9,30.25,North,350,2.0,4.0,60,0.00,,,0.00,Wunderground v.1.15,2013-02-16 05:36:00,
2013-02-15 23:38:00,49.2,35.5,30.25,North,360,2.0,4.0,59,0.00,,,0.00,Wunderground v.1.15,2013-02-16 05:38:00,
2013-02-15 23:39:00,49.2,35.0,30.25,NNW,340,2.0,4.0,58,0.00,,,0.00,Wunderground v.1.15,2013-02-16 05:39:00,
2013-02-15 23:43:00,49.2,34.6,30.25,NW,320,2.0,8.0,57,0.00,,,0.00,Wunderground v.1.15,2013-02-16 05:43:00,
2013-02-15 23:44:00,49.2,34.2,30.25,NNW,331,2.0,8.0,56,0.00,,,0.00,Wunderground v.1.15,2013-02-16 05:44:00,
2013-02-15 23:45:00,49.2,34.2,30.25,NW,326,3.0,8.0,56,0.00,,,0.00,Wunderground v.1.15,2013-02-16 05:45:00,
2013-02-15 23:50:00,49.2,33.3,30.25,NNW,338,3.0,3.0,54,0.00,,,0.00,Wunderground v.1.15,2013-02-16 05:50:00,
2013-02-15 23:51:00,49.2,33.3,30.25,North,360,3.0,3.0,54,0.00,,,0.00,Wunderground v.1.15,2013-02-16 05:51:00,
2013-02-15 23:52:00,49.2,33.3,30.25,NNE,17,3.0,3.0,54,0.00,,,0.00,Wunderground v.1.15,2013-02-16 05:52:00,
2013-02-15 23:54:00,49.1,32.7,30.25,North,360,3.0,4.0,53,0.00,,,0.00,Wunderground v.1.15,2013-02-16 05:54:00,
2013-02-15 23:57:00,49.1,32.2,30.25,North,11,3.0,7.0,52,0.00,,,0.00,Wunderground v.1.15,2013-02-16 05:57:00,